<?xml version="1.0" encoding="UTF-8" standalone="no" ?>
<gpx xmlns="http://www.topografix.com/GPX/1/1" xmlns:xsi="http://www.w3.org/2001/XMLSchema-instance" xsi:schemaLocation="http://www.topografix.com/GPX/1/1 http://www.topografix.com/GPX/1/1/gpx.xsd" version="1.1" creator="VisuGPX - https://www.visugpx.com">
  <metadata>
    <name>gache</name>
    <desc><![CDATA[pour les giteurs]]></desc>
  </metadata>
  <trk>
    <name><![CDATA[GACHE VERSION COURTE]]></name>
    <trkseg>
      <trkpt lat="44.23512" lon="6.00919">
        <ele>1026.83</ele>
        <time>2013-06-09T06:32:19Z</time>
      </trkpt>
      <trkpt lat="44.23512" lon="6.00919">
        <ele>1026.83</ele>
        <time>2013-06-09T06:32:20Z</time>
      </trkpt>
      <trkpt lat="44.23502" lon="6.00933">
        <ele>1026.34</ele>
        <time>2013-06-09T06:32:32Z</time>
      </trkpt>
      <trkpt lat="44.23501" lon="6.00937">
        <ele>1026.83</ele>
        <time>2013-06-09T06:32:44Z</time>
      </trkpt>
      <trkpt lat="44.23501" lon="6.0094">
        <ele>1026.83</ele>
        <time>2013-06-09T06:33:01Z</time>
      </trkpt>
      <trkpt lat="44.23506" lon="6.00959">
        <ele>1026.83</ele>
        <time>2013-06-09T06:33:16Z</time>
      </trkpt>
      <trkpt lat="44.23508" lon="6.00984">
        <ele>1027.31</ele>
        <time>2013-06-09T06:33:32Z</time>
      </trkpt>
      <trkpt lat="44.23521" lon="6.01001">
        <ele>1026.34</ele>
        <time>2013-06-09T06:33:49Z</time>
      </trkpt>
      <trkpt lat="44.23522" lon="6.01006">
        <ele>1027.79</ele>
        <time>2013-06-09T06:34:02Z</time>
      </trkpt>
      <trkpt lat="44.23518" lon="6.01017">
        <ele>1027.31</ele>
        <time>2013-06-09T06:34:25Z</time>
      </trkpt>
      <trkpt lat="44.23517" lon="6.01023">
        <ele>1027.31</ele>
        <time>2013-06-09T06:34:46Z</time>
      </trkpt>
      <trkpt lat="44.23517" lon="6.01026">
        <ele>1027.31</ele>
        <time>2013-06-09T06:35:05Z</time>
      </trkpt>
      <trkpt lat="44.23517" lon="6.01028">
        <ele>1027.79</ele>
        <time>2013-06-09T06:35:23Z</time>
      </trkpt>
      <trkpt lat="44.23518" lon="6.0103">
        <ele>1027.79</ele>
        <time>2013-06-09T06:35:40Z</time>
      </trkpt>
      <trkpt lat="44.23517" lon="6.01033">
        <ele>1027.31</ele>
        <time>2013-06-09T06:35:54Z</time>
      </trkpt>
      <trkpt lat="44.23513" lon="6.01036">
        <ele>1027.79</ele>
        <time>2013-06-09T06:36:11Z</time>
      </trkpt>
      <trkpt lat="44.23518" lon="6.01032">
        <ele>1027.79</ele>
        <time>2013-06-09T06:36:34Z</time>
      </trkpt>
      <trkpt lat="44.23521" lon="6.01032">
        <ele>1027.79</ele>
        <time>2013-06-09T06:36:57Z</time>
      </trkpt>
      <trkpt lat="44.2352" lon="6.01032">
        <ele>1027.31</ele>
        <time>2013-06-09T06:37:17Z</time>
      </trkpt>
      <trkpt lat="44.23521" lon="6.01033">
        <ele>1024.9</ele>
        <time>2013-06-09T06:37:36Z</time>
      </trkpt>
      <trkpt lat="44.23519" lon="6.01046">
        <ele>1025.38</ele>
        <time>2013-06-09T06:37:51Z</time>
      </trkpt>
      <trkpt lat="44.23524" lon="6.01059">
        <ele>1025.38</ele>
        <time>2013-06-09T06:38:05Z</time>
      </trkpt>
      <trkpt lat="44.23525" lon="6.01056">
        <ele>1025.86</ele>
        <time>2013-06-09T06:38:17Z</time>
      </trkpt>
      <trkpt lat="44.23521" lon="6.01053">
        <ele>1025.38</ele>
        <time>2013-06-09T06:38:37Z</time>
      </trkpt>
      <trkpt lat="44.23511" lon="6.0106">
        <ele>1025.38</ele>
        <time>2013-06-09T06:38:58Z</time>
      </trkpt>
      <trkpt lat="44.23504" lon="6.01058">
        <ele>1025.38</ele>
        <time>2013-06-09T06:39:21Z</time>
      </trkpt>
      <trkpt lat="44.23503" lon="6.01063">
        <ele>1025.38</ele>
        <time>2013-06-09T06:39:51Z</time>
      </trkpt>
      <trkpt lat="44.23505" lon="6.01057">
        <ele>1025.86</ele>
        <time>2013-06-09T06:40:14Z</time>
      </trkpt>
      <trkpt lat="44.23507" lon="6.01062">
        <ele>1025.86</ele>
        <time>2013-06-09T06:40:35Z</time>
      </trkpt>
      <trkpt lat="44.23505" lon="6.01062">
        <ele>1025.86</ele>
        <time>2013-06-09T06:41:00Z</time>
      </trkpt>
      <trkpt lat="44.23508" lon="6.01063">
        <ele>1026.34</ele>
        <time>2013-06-09T06:41:26Z</time>
      </trkpt>
      <trkpt lat="44.23507" lon="6.01064">
        <ele>1026.34</ele>
        <time>2013-06-09T06:41:52Z</time>
      </trkpt>
      <trkpt lat="44.23507" lon="6.01058">
        <ele>1026.34</ele>
        <time>2013-06-09T06:42:14Z</time>
      </trkpt>
      <trkpt lat="44.23507" lon="6.01062">
        <ele>1024.9</ele>
        <time>2013-06-09T06:42:27Z</time>
      </trkpt>
      <trkpt lat="44.23506" lon="6.01061">
        <ele>1025.86</ele>
        <time>2013-06-09T06:42:47Z</time>
      </trkpt>
      <trkpt lat="44.23506" lon="6.01067">
        <ele>1025.86</ele>
        <time>2013-06-09T06:43:08Z</time>
      </trkpt>
      <trkpt lat="44.23511" lon="6.01061">
        <ele>1022.98</ele>
        <time>2013-06-09T06:43:20Z</time>
      </trkpt>
      <trkpt lat="44.23511" lon="6.01061">
        <ele>1029.23</ele>
        <time>2013-06-09T06:43:21Z</time>
      </trkpt>
      <trkpt lat="44.2351" lon="6.01062">
        <ele>1023.94</ele>
        <time>2013-06-09T06:43:22Z</time>
      </trkpt>
      <trkpt lat="44.2351" lon="6.01062">
        <ele>1027.79</ele>
        <time>2013-06-09T06:43:23Z</time>
      </trkpt>
      <trkpt lat="44.23509" lon="6.01063">
        <ele>1024.42</ele>
        <time>2013-06-09T06:43:24Z</time>
      </trkpt>
      <trkpt lat="44.23509" lon="6.01064">
        <ele>1027.79</ele>
        <time>2013-06-09T06:43:25Z</time>
      </trkpt>
      <trkpt lat="44.23508" lon="6.01064">
        <ele>1027.79</ele>
        <time>2013-06-09T06:43:26Z</time>
      </trkpt>
      <trkpt lat="44.23508" lon="6.01065">
        <ele>1025.38</ele>
        <time>2013-06-09T06:43:28Z</time>
      </trkpt>
      <trkpt lat="44.23508" lon="6.01065">
        <ele>1021.54</ele>
        <time>2013-06-09T06:43:29Z</time>
      </trkpt>
      <trkpt lat="44.23508" lon="6.01066">
        <ele>1021.54</ele>
        <time>2013-06-09T06:43:30Z</time>
      </trkpt>
      <trkpt lat="44.23508" lon="6.01066">
        <ele>1029.71</ele>
        <time>2013-06-09T06:43:31Z</time>
      </trkpt>
      <trkpt lat="44.23508" lon="6.01067">
        <ele>1027.79</ele>
        <time>2013-06-09T06:43:32Z</time>
      </trkpt>
      <trkpt lat="44.23508" lon="6.01067">
        <ele>1020.1</ele>
        <time>2013-06-09T06:43:34Z</time>
      </trkpt>
      <trkpt lat="44.23508" lon="6.01067">
        <ele>1029.71</ele>
        <time>2013-06-09T06:43:35Z</time>
      </trkpt>
      <trkpt lat="44.23508" lon="6.01067">
        <ele>1027.79</ele>
        <time>2013-06-09T06:43:36Z</time>
      </trkpt>
      <trkpt lat="44.23508" lon="6.01067">
        <ele>1024.42</ele>
        <time>2013-06-09T06:43:37Z</time>
      </trkpt>
      <trkpt lat="44.23508" lon="6.01068">
        <ele>1026.34</ele>
        <time>2013-06-09T06:43:38Z</time>
      </trkpt>
      <trkpt lat="44.23507" lon="6.01069">
        <ele>1024.42</ele>
        <time>2013-06-09T06:43:47Z</time>
      </trkpt>
      <trkpt lat="44.23506" lon="6.01063">
        <ele>1025.38</ele>
        <time>2013-06-09T06:44:04Z</time>
      </trkpt>
      <trkpt lat="44.23504" lon="6.01067">
        <ele>1025.86</ele>
        <time>2013-06-09T06:44:27Z</time>
      </trkpt>
      <trkpt lat="44.23504" lon="6.01061">
        <ele>1025.86</ele>
        <time>2013-06-09T06:44:46Z</time>
      </trkpt>
      <trkpt lat="44.23504" lon="6.0106">
        <ele>1025.86</ele>
        <time>2013-06-09T06:45:07Z</time>
      </trkpt>
      <trkpt lat="44.23508" lon="6.01066">
        <ele>1025.86</ele>
        <time>2013-06-09T06:45:27Z</time>
      </trkpt>
      <trkpt lat="44.23508" lon="6.01063">
        <ele>1024.9</ele>
        <time>2013-06-09T06:45:44Z</time>
      </trkpt>
      <trkpt lat="44.23508" lon="6.0106">
        <ele>1025.38</ele>
        <time>2013-06-09T06:46:03Z</time>
      </trkpt>
      <trkpt lat="44.23504" lon="6.01063">
        <ele>1025.38</ele>
        <time>2013-06-09T06:46:22Z</time>
      </trkpt>
      <trkpt lat="44.2351" lon="6.01058">
        <ele>1025.38</ele>
        <time>2013-06-09T06:46:40Z</time>
      </trkpt>
      <trkpt lat="44.23507" lon="6.01062">
        <ele>1025.38</ele>
        <time>2013-06-09T06:47:09Z</time>
      </trkpt>
      <trkpt lat="44.23507" lon="6.01059">
        <ele>1025.38</ele>
        <time>2013-06-09T06:47:32Z</time>
      </trkpt>
      <trkpt lat="44.23508" lon="6.01058">
        <ele>1025.86</ele>
        <time>2013-06-09T06:47:48Z</time>
      </trkpt>
      <trkpt lat="44.23507" lon="6.01059">
        <ele>1025.86</ele>
        <time>2013-06-09T06:48:04Z</time>
      </trkpt>
      <trkpt lat="44.23505" lon="6.01056">
        <ele>1025.86</ele>
        <time>2013-06-09T06:48:21Z</time>
      </trkpt>
      <trkpt lat="44.23503" lon="6.01061">
        <ele>1025.86</ele>
        <time>2013-06-09T06:48:50Z</time>
      </trkpt>
      <trkpt lat="44.23506" lon="6.01059">
        <ele>1025.86</ele>
        <time>2013-06-09T06:49:14Z</time>
      </trkpt>
      <trkpt lat="44.23508" lon="6.01061">
        <ele>1025.86</ele>
        <time>2013-06-09T06:49:36Z</time>
      </trkpt>
      <trkpt lat="44.23504" lon="6.01062">
        <ele>1025.86</ele>
        <time>2013-06-09T06:50:00Z</time>
      </trkpt>
      <trkpt lat="44.23504" lon="6.01061">
        <ele>1025.86</ele>
        <time>2013-06-09T06:50:18Z</time>
      </trkpt>
      <trkpt lat="44.23503" lon="6.01064">
        <ele>1025.86</ele>
        <time>2013-06-09T06:50:37Z</time>
      </trkpt>
      <trkpt lat="44.23503" lon="6.0106">
        <ele>1025.38</ele>
        <time>2013-06-09T06:51:01Z</time>
      </trkpt>
      <trkpt lat="44.23507" lon="6.01056">
        <ele>1025.86</ele>
        <time>2013-06-09T06:51:20Z</time>
      </trkpt>
      <trkpt lat="44.23507" lon="6.01055">
        <ele>1025.38</ele>
        <time>2013-06-09T06:51:31Z</time>
      </trkpt>
      <trkpt lat="44.23513" lon="6.01067">
        <ele>1025.86</ele>
        <time>2013-06-09T06:51:57Z</time>
      </trkpt>
      <trkpt lat="44.23508" lon="6.01066">
        <ele>1026.34</ele>
        <time>2013-06-09T06:52:27Z</time>
      </trkpt>
      <trkpt lat="44.23517" lon="6.01053">
        <ele>1028.75</ele>
        <time>2013-06-09T06:52:44Z</time>
      </trkpt>
      <trkpt lat="44.23527" lon="6.01043">
        <ele>1031.63</ele>
        <time>2013-06-09T06:52:59Z</time>
      </trkpt>
      <trkpt lat="44.23533" lon="6.01035">
        <ele>1032.59</ele>
        <time>2013-06-09T06:53:13Z</time>
      </trkpt>
      <trkpt lat="44.23537" lon="6.01028">
        <ele>1032.59</ele>
        <time>2013-06-09T06:53:25Z</time>
      </trkpt>
      <trkpt lat="44.2354" lon="6.01026">
        <ele>1035.96</ele>
        <time>2013-06-09T06:53:31Z</time>
      </trkpt>
      <trkpt lat="44.23546" lon="6.01016">
        <ele>1036.92</ele>
        <time>2013-06-09T06:53:50Z</time>
      </trkpt>
      <trkpt lat="44.23546" lon="6.01023">
        <ele>1038.84</ele>
        <time>2013-06-09T06:54:06Z</time>
      </trkpt>
      <trkpt lat="44.23546" lon="6.01023">
        <ele>1036.44</ele>
        <time>2013-06-09T06:54:07Z</time>
      </trkpt>
      <trkpt lat="44.23547" lon="6.01023">
        <ele>1037.88</ele>
        <time>2013-06-09T06:54:08Z</time>
      </trkpt>
      <trkpt lat="44.23547" lon="6.01024">
        <ele>1034.52</ele>
        <time>2013-06-09T06:54:09Z</time>
      </trkpt>
      <trkpt lat="44.23547" lon="6.01024">
        <ele>1036.92</ele>
        <time>2013-06-09T06:54:10Z</time>
      </trkpt>
      <trkpt lat="44.23547" lon="6.01025">
        <ele>1036.92</ele>
        <time>2013-06-09T06:54:13Z</time>
      </trkpt>
      <trkpt lat="44.23548" lon="6.01019">
        <ele>1039.32</ele>
        <time>2013-06-09T06:54:29Z</time>
      </trkpt>
      <trkpt lat="44.23549" lon="6.01018">
        <ele>1039.8</ele>
        <time>2013-06-09T06:54:33Z</time>
      </trkpt>
      <trkpt lat="44.23549" lon="6.01018">
        <ele>1036.44</ele>
        <time>2013-06-09T06:54:34Z</time>
      </trkpt>
      <trkpt lat="44.23549" lon="6.01018">
        <ele>1041.25</ele>
        <time>2013-06-09T06:54:35Z</time>
      </trkpt>
      <trkpt lat="44.2355" lon="6.01017">
        <ele>1038.36</ele>
        <time>2013-06-09T06:54:36Z</time>
      </trkpt>
      <trkpt lat="44.2355" lon="6.01017">
        <ele>1040.28</ele>
        <time>2013-06-09T06:54:37Z</time>
      </trkpt>
      <trkpt lat="44.2355" lon="6.01017">
        <ele>1038.84</ele>
        <time>2013-06-09T06:54:38Z</time>
      </trkpt>
      <trkpt lat="44.23551" lon="6.01016">
        <ele>1040.28</ele>
        <time>2013-06-09T06:54:39Z</time>
      </trkpt>
      <trkpt lat="44.23552" lon="6.01017">
        <ele>1040.76</ele>
        <time>2013-06-09T06:54:46Z</time>
      </trkpt>
      <trkpt lat="44.23552" lon="6.01017">
        <ele>1038.84</ele>
        <time>2013-06-09T06:54:47Z</time>
      </trkpt>
      <trkpt lat="44.23552" lon="6.01017">
        <ele>1041.25</ele>
        <time>2013-06-09T06:54:48Z</time>
      </trkpt>
      <trkpt lat="44.23552" lon="6.01016">
        <ele>1039.8</ele>
        <time>2013-06-09T06:54:49Z</time>
      </trkpt>
      <trkpt lat="44.23552" lon="6.01016">
        <ele>1041.25</ele>
        <time>2013-06-09T06:54:50Z</time>
      </trkpt>
      <trkpt lat="44.23554" lon="6.01014">
        <ele>1041.73</ele>
        <time>2013-06-09T06:54:54Z</time>
      </trkpt>
      <trkpt lat="44.23554" lon="6.01014">
        <ele>1040.28</ele>
        <time>2013-06-09T06:54:55Z</time>
      </trkpt>
      <trkpt lat="44.23555" lon="6.01014">
        <ele>1041.25</ele>
        <time>2013-06-09T06:54:56Z</time>
      </trkpt>
      <trkpt lat="44.23555" lon="6.01014">
        <ele>1039.8</ele>
        <time>2013-06-09T06:54:57Z</time>
      </trkpt>
      <trkpt lat="44.23555" lon="6.01014">
        <ele>1042.69</ele>
        <time>2013-06-09T06:54:58Z</time>
      </trkpt>
      <trkpt lat="44.23555" lon="6.01013">
        <ele>1040.76</ele>
        <time>2013-06-09T06:55:03Z</time>
      </trkpt>
      <trkpt lat="44.23555" lon="6.01013">
        <ele>1042.69</ele>
        <time>2013-06-09T06:55:04Z</time>
      </trkpt>
      <trkpt lat="44.23556" lon="6.01014">
        <ele>1040.76</ele>
        <time>2013-06-09T06:55:05Z</time>
      </trkpt>
      <trkpt lat="44.23556" lon="6.01013">
        <ele>1042.69</ele>
        <time>2013-06-09T06:55:06Z</time>
      </trkpt>
      <trkpt lat="44.23557" lon="6.01013">
        <ele>1041.25</ele>
        <time>2013-06-09T06:55:07Z</time>
      </trkpt>
      <trkpt lat="44.23557" lon="6.01013">
        <ele>1043.65</ele>
        <time>2013-06-09T06:55:08Z</time>
      </trkpt>
      <trkpt lat="44.23558" lon="6.01013">
        <ele>1042.21</ele>
        <time>2013-06-09T06:55:09Z</time>
      </trkpt>
      <trkpt lat="44.23559" lon="6.01013">
        <ele>1045.57</ele>
        <time>2013-06-09T06:55:16Z</time>
      </trkpt>
      <trkpt lat="44.23568" lon="6.01008">
        <ele>1047.01</ele>
        <time>2013-06-09T06:55:33Z</time>
      </trkpt>
      <trkpt lat="44.23569" lon="6.01008">
        <ele>1047.01</ele>
        <time>2013-06-09T06:55:36Z</time>
      </trkpt>
      <trkpt lat="44.23572" lon="6.01006">
        <ele>1046.05</ele>
        <time>2013-06-09T06:55:46Z</time>
      </trkpt>
      <trkpt lat="44.23572" lon="6.01005">
        <ele>1048.94</ele>
        <time>2013-06-09T06:55:47Z</time>
      </trkpt>
      <trkpt lat="44.23573" lon="6.01005">
        <ele>1047.01</ele>
        <time>2013-06-09T06:55:48Z</time>
      </trkpt>
      <trkpt lat="44.23575" lon="6.01002">
        <ele>1049.9</ele>
        <time>2013-06-09T06:55:56Z</time>
      </trkpt>
      <trkpt lat="44.23575" lon="6.01001">
        <ele>1047.49</ele>
        <time>2013-06-09T06:55:57Z</time>
      </trkpt>
      <trkpt lat="44.23575" lon="6.01001">
        <ele>1049.9</ele>
        <time>2013-06-09T06:55:58Z</time>
      </trkpt>
      <trkpt lat="44.23576" lon="6.01001">
        <ele>1047.49</ele>
        <time>2013-06-09T06:55:59Z</time>
      </trkpt>
      <trkpt lat="44.23576" lon="6.01001">
        <ele>1050.38</ele>
        <time>2013-06-09T06:56:00Z</time>
      </trkpt>
      <trkpt lat="44.23576" lon="6.01001">
        <ele>1047.49</ele>
        <time>2013-06-09T06:56:01Z</time>
      </trkpt>
      <trkpt lat="44.23576" lon="6.01001">
        <ele>1049.9</ele>
        <time>2013-06-09T06:56:02Z</time>
      </trkpt>
      <trkpt lat="44.23577" lon="6.01001">
        <ele>1050.38</ele>
        <time>2013-06-09T06:56:04Z</time>
      </trkpt>
      <trkpt lat="44.23578" lon="6.01">
        <ele>1048.45</ele>
        <time>2013-06-09T06:56:08Z</time>
      </trkpt>
      <trkpt lat="44.23578" lon="6.01">
        <ele>1050.38</ele>
        <time>2013-06-09T06:56:09Z</time>
      </trkpt>
      <trkpt lat="44.2358" lon="6.00998">
        <ele>1051.82</ele>
        <time>2013-06-09T06:56:16Z</time>
      </trkpt>
      <trkpt lat="44.23582" lon="6.00996">
        <ele>1052.78</ele>
        <time>2013-06-09T06:56:22Z</time>
      </trkpt>
      <trkpt lat="44.23582" lon="6.00996">
        <ele>1050.38</ele>
        <time>2013-06-09T06:56:23Z</time>
      </trkpt>
      <trkpt lat="44.23582" lon="6.00995">
        <ele>1053.74</ele>
        <time>2013-06-09T06:56:24Z</time>
      </trkpt>
      <trkpt lat="44.23583" lon="6.00995">
        <ele>1051.34</ele>
        <time>2013-06-09T06:56:25Z</time>
      </trkpt>
      <trkpt lat="44.23583" lon="6.00995">
        <ele>1053.74</ele>
        <time>2013-06-09T06:56:26Z</time>
      </trkpt>
      <trkpt lat="44.23584" lon="6.00994">
        <ele>1052.3</ele>
        <time>2013-06-09T06:56:41Z</time>
      </trkpt>
      <trkpt lat="44.23585" lon="6.00994">
        <ele>1052.3</ele>
        <time>2013-06-09T06:56:46Z</time>
      </trkpt>
      <trkpt lat="44.23585" lon="6.00993">
        <ele>1054.22</ele>
        <time>2013-06-09T06:56:47Z</time>
      </trkpt>
      <trkpt lat="44.23585" lon="6.00992">
        <ele>1052.3</ele>
        <time>2013-06-09T06:56:48Z</time>
      </trkpt>
      <trkpt lat="44.23585" lon="6.00992">
        <ele>1054.22</ele>
        <time>2013-06-09T06:56:49Z</time>
      </trkpt>
      <trkpt lat="44.23587" lon="6.00989">
        <ele>1053.26</ele>
        <time>2013-06-09T06:56:53Z</time>
      </trkpt>
      <trkpt lat="44.23588" lon="6.00989">
        <ele>1055.67</ele>
        <time>2013-06-09T06:56:54Z</time>
      </trkpt>
      <trkpt lat="44.23588" lon="6.00988">
        <ele>1055.67</ele>
        <time>2013-06-09T06:56:57Z</time>
      </trkpt>
      <trkpt lat="44.23589" lon="6.00988">
        <ele>1055.67</ele>
        <time>2013-06-09T06:57:01Z</time>
      </trkpt>
      <trkpt lat="44.2359" lon="6.00988">
        <ele>1053.26</ele>
        <time>2013-06-09T06:57:12Z</time>
      </trkpt>
      <trkpt lat="44.2359" lon="6.00988">
        <ele>1056.15</ele>
        <time>2013-06-09T06:57:13Z</time>
      </trkpt>
      <trkpt lat="44.23591" lon="6.00984">
        <ele>1054.7</ele>
        <time>2013-06-09T06:57:17Z</time>
      </trkpt>
      <trkpt lat="44.23591" lon="6.00984">
        <ele>1057.11</ele>
        <time>2013-06-09T06:57:18Z</time>
      </trkpt>
      <trkpt lat="44.23591" lon="6.00983">
        <ele>1055.67</ele>
        <time>2013-06-09T06:57:19Z</time>
      </trkpt>
      <trkpt lat="44.23592" lon="6.00982">
        <ele>1057.59</ele>
        <time>2013-06-09T06:57:22Z</time>
      </trkpt>
      <trkpt lat="44.23593" lon="6.00982">
        <ele>1055.18</ele>
        <time>2013-06-09T06:57:23Z</time>
      </trkpt>
      <trkpt lat="44.23593" lon="6.00982">
        <ele>1058.07</ele>
        <time>2013-06-09T06:57:24Z</time>
      </trkpt>
      <trkpt lat="44.23593" lon="6.00981">
        <ele>1056.63</ele>
        <time>2013-06-09T06:57:25Z</time>
      </trkpt>
      <trkpt lat="44.23593" lon="6.0098">
        <ele>1058.55</ele>
        <time>2013-06-09T06:57:26Z</time>
      </trkpt>
      <trkpt lat="44.23595" lon="6.0096">
        <ele>1058.55</ele>
        <time>2013-06-09T06:57:37Z</time>
      </trkpt>
      <trkpt lat="44.23595" lon="6.0096">
        <ele>1060.47</ele>
        <time>2013-06-09T06:57:38Z</time>
      </trkpt>
      <trkpt lat="44.23595" lon="6.0096">
        <ele>1058.07</ele>
        <time>2013-06-09T06:57:39Z</time>
      </trkpt>
      <trkpt lat="44.23595" lon="6.0096">
        <ele>1060.47</ele>
        <time>2013-06-09T06:57:40Z</time>
      </trkpt>
      <trkpt lat="44.23596" lon="6.00958">
        <ele>1060.95</ele>
        <time>2013-06-09T06:57:43Z</time>
      </trkpt>
      <trkpt lat="44.23598" lon="6.00954">
        <ele>1061.91</ele>
        <time>2013-06-09T06:57:58Z</time>
      </trkpt>
      <trkpt lat="44.23601" lon="6.00948">
        <ele>1062.39</ele>
        <time>2013-06-09T06:58:12Z</time>
      </trkpt>
      <trkpt lat="44.23603" lon="6.00946">
        <ele>1065.76</ele>
        <time>2013-06-09T06:58:20Z</time>
      </trkpt>
      <trkpt lat="44.23607" lon="6.0094">
        <ele>1066.72</ele>
        <time>2013-06-09T06:58:33Z</time>
      </trkpt>
      <trkpt lat="44.23608" lon="6.00932">
        <ele>1066.72</ele>
        <time>2013-06-09T06:58:49Z</time>
      </trkpt>
      <trkpt lat="44.2361" lon="6.0093">
        <ele>1070.08</ele>
        <time>2013-06-09T06:59:00Z</time>
      </trkpt>
      <trkpt lat="44.23614" lon="6.00925">
        <ele>1072.01</ele>
        <time>2013-06-09T06:59:11Z</time>
      </trkpt>
      <trkpt lat="44.23614" lon="6.00913">
        <ele>1072.97</ele>
        <time>2013-06-09T06:59:25Z</time>
      </trkpt>
      <trkpt lat="44.23615" lon="6.00915">
        <ele>1072.01</ele>
        <time>2013-06-09T06:59:44Z</time>
      </trkpt>
      <trkpt lat="44.23616" lon="6.0091">
        <ele>1074.41</ele>
        <time>2013-06-09T06:59:50Z</time>
      </trkpt>
      <trkpt lat="44.2362" lon="6.00902">
        <ele>1078.26</ele>
        <time>2013-06-09T07:00:08Z</time>
      </trkpt>
      <trkpt lat="44.23621" lon="6.009">
        <ele>1078.26</ele>
        <time>2013-06-09T07:00:26Z</time>
      </trkpt>
      <trkpt lat="44.23626" lon="6.00901">
        <ele>1081.62</ele>
        <time>2013-06-09T07:00:38Z</time>
      </trkpt>
      <trkpt lat="44.2363" lon="6.00907">
        <ele>1083.06</ele>
        <time>2013-06-09T07:00:58Z</time>
      </trkpt>
      <trkpt lat="44.2363" lon="6.00911">
        <ele>1084.99</ele>
        <time>2013-06-09T07:01:17Z</time>
      </trkpt>
      <trkpt lat="44.23633" lon="6.00917">
        <ele>1086.91</ele>
        <time>2013-06-09T07:01:31Z</time>
      </trkpt>
      <trkpt lat="44.23635" lon="6.0091">
        <ele>1087.39</ele>
        <time>2013-06-09T07:01:46Z</time>
      </trkpt>
      <trkpt lat="44.23637" lon="6.009">
        <ele>1089.31</ele>
        <time>2013-06-09T07:02:02Z</time>
      </trkpt>
      <trkpt lat="44.23646" lon="6.00893">
        <ele>1091.23</ele>
        <time>2013-06-09T07:02:19Z</time>
      </trkpt>
      <trkpt lat="44.23649" lon="6.0089">
        <ele>1094.6</ele>
        <time>2013-06-09T07:02:36Z</time>
      </trkpt>
      <trkpt lat="44.2365" lon="6.00895">
        <ele>1096.52</ele>
        <time>2013-06-09T07:02:52Z</time>
      </trkpt>
      <trkpt lat="44.23652" lon="6.00905">
        <ele>1097</ele>
        <time>2013-06-09T07:03:10Z</time>
      </trkpt>
      <trkpt lat="44.23656" lon="6.00899">
        <ele>1098.92</ele>
        <time>2013-06-09T07:03:26Z</time>
      </trkpt>
      <trkpt lat="44.23657" lon="6.00898">
        <ele>1100.37</ele>
        <time>2013-06-09T07:03:30Z</time>
      </trkpt>
      <trkpt lat="44.23658" lon="6.00897">
        <ele>1100.37</ele>
        <time>2013-06-09T07:03:34Z</time>
      </trkpt>
      <trkpt lat="44.2366" lon="6.00893">
        <ele>1101.81</ele>
        <time>2013-06-09T07:03:45Z</time>
      </trkpt>
      <trkpt lat="44.23661" lon="6.00893">
        <ele>1104.21</ele>
        <time>2013-06-09T07:03:59Z</time>
      </trkpt>
      <trkpt lat="44.23663" lon="6.00899">
        <ele>1105.17</ele>
        <time>2013-06-09T07:04:13Z</time>
      </trkpt>
      <trkpt lat="44.23663" lon="6.00898">
        <ele>1105.17</ele>
        <time>2013-06-09T07:04:30Z</time>
      </trkpt>
      <trkpt lat="44.23666" lon="6.00893">
        <ele>1107.58</ele>
        <time>2013-06-09T07:04:44Z</time>
      </trkpt>
      <trkpt lat="44.23666" lon="6.00893">
        <ele>1107.58</ele>
        <time>2013-06-09T07:04:45Z</time>
      </trkpt>
      <trkpt lat="44.23668" lon="6.00889">
        <ele>1108.54</ele>
        <time>2013-06-09T07:05:00Z</time>
      </trkpt>
      <trkpt lat="44.23668" lon="6.00883">
        <ele>1109.5</ele>
        <time>2013-06-09T07:05:15Z</time>
      </trkpt>
      <trkpt lat="44.23671" lon="6.0088">
        <ele>1111.42</ele>
        <time>2013-06-09T07:05:30Z</time>
      </trkpt>
      <trkpt lat="44.23673" lon="6.0088">
        <ele>1114.79</ele>
        <time>2013-06-09T07:05:45Z</time>
      </trkpt>
      <trkpt lat="44.23673" lon="6.0088">
        <ele>1111.9</ele>
        <time>2013-06-09T07:05:46Z</time>
      </trkpt>
      <trkpt lat="44.23673" lon="6.0088">
        <ele>1115.27</ele>
        <time>2013-06-09T07:05:48Z</time>
      </trkpt>
      <trkpt lat="44.23674" lon="6.00879">
        <ele>1112.38</ele>
        <time>2013-06-09T07:05:52Z</time>
      </trkpt>
      <trkpt lat="44.23675" lon="6.00879">
        <ele>1116.71</ele>
        <time>2013-06-09T07:05:53Z</time>
      </trkpt>
      <trkpt lat="44.23674" lon="6.00871">
        <ele>1118.15</ele>
        <time>2013-06-09T07:06:07Z</time>
      </trkpt>
      <trkpt lat="44.23676" lon="6.00865">
        <ele>1117.67</ele>
        <time>2013-06-09T07:06:23Z</time>
      </trkpt>
      <trkpt lat="44.23675" lon="6.00871">
        <ele>1122</ele>
        <time>2013-06-09T07:06:34Z</time>
      </trkpt>
      <trkpt lat="44.23675" lon="6.00871">
        <ele>1117.67</ele>
        <time>2013-06-09T07:06:35Z</time>
      </trkpt>
      <trkpt lat="44.23676" lon="6.00868">
        <ele>1122.96</ele>
        <time>2013-06-09T07:06:39Z</time>
      </trkpt>
      <trkpt lat="44.23675" lon="6.00864">
        <ele>1119.59</ele>
        <time>2013-06-09T07:06:43Z</time>
      </trkpt>
      <trkpt lat="44.23677" lon="6.00861">
        <ele>1122.48</ele>
        <time>2013-06-09T07:06:47Z</time>
      </trkpt>
      <trkpt lat="44.23682" lon="6.00865">
        <ele>1122.96</ele>
        <time>2013-06-09T07:07:03Z</time>
      </trkpt>
      <trkpt lat="44.23686" lon="6.00867">
        <ele>1124.4</ele>
        <time>2013-06-09T07:07:19Z</time>
      </trkpt>
      <trkpt lat="44.23687" lon="6.00863">
        <ele>1127.28</ele>
        <time>2013-06-09T07:07:23Z</time>
      </trkpt>
      <trkpt lat="44.23687" lon="6.0085">
        <ele>1128.73</ele>
        <time>2013-06-09T07:07:39Z</time>
      </trkpt>
      <trkpt lat="44.23687" lon="6.00839">
        <ele>1127.76</ele>
        <time>2013-06-09T07:07:55Z</time>
      </trkpt>
      <trkpt lat="44.2369" lon="6.00838">
        <ele>1130.65</ele>
        <time>2013-06-09T07:08:09Z</time>
      </trkpt>
      <trkpt lat="44.23694" lon="6.00836">
        <ele>1130.65</ele>
        <time>2013-06-09T07:08:24Z</time>
      </trkpt>
      <trkpt lat="44.23694" lon="6.00837">
        <ele>1130.65</ele>
        <time>2013-06-09T07:08:44Z</time>
      </trkpt>
      <trkpt lat="44.23694" lon="6.00836">
        <ele>1130.65</ele>
        <time>2013-06-09T07:09:12Z</time>
      </trkpt>
      <trkpt lat="44.23693" lon="6.00836">
        <ele>1130.17</ele>
        <time>2013-06-09T07:09:35Z</time>
      </trkpt>
      <trkpt lat="44.23694" lon="6.00837">
        <ele>1130.65</ele>
        <time>2013-06-09T07:09:55Z</time>
      </trkpt>
      <trkpt lat="44.23694" lon="6.00835">
        <ele>1130.65</ele>
        <time>2013-06-09T07:10:20Z</time>
      </trkpt>
      <trkpt lat="44.23695" lon="6.00837">
        <ele>1130.65</ele>
        <time>2013-06-09T07:10:36Z</time>
      </trkpt>
      <trkpt lat="44.23695" lon="6.00835">
        <ele>1130.65</ele>
        <time>2013-06-09T07:11:02Z</time>
      </trkpt>
      <trkpt lat="44.23694" lon="6.00834">
        <ele>1130.65</ele>
        <time>2013-06-09T07:11:31Z</time>
      </trkpt>
      <trkpt lat="44.23694" lon="6.00835">
        <ele>1130.65</ele>
        <time>2013-06-09T07:11:57Z</time>
      </trkpt>
      <trkpt lat="44.23695" lon="6.00835">
        <ele>1130.65</ele>
        <time>2013-06-09T07:12:30Z</time>
      </trkpt>
      <trkpt lat="44.23693" lon="6.00833">
        <ele>1130.17</ele>
        <time>2013-06-09T07:13:04Z</time>
      </trkpt>
      <trkpt lat="44.23694" lon="6.00836">
        <ele>1130.17</ele>
        <time>2013-06-09T07:13:25Z</time>
      </trkpt>
      <trkpt lat="44.23695" lon="6.00838">
        <ele>1130.65</ele>
        <time>2013-06-09T07:13:52Z</time>
      </trkpt>
      <trkpt lat="44.23696" lon="6.00835">
        <ele>1130.65</ele>
        <time>2013-06-09T07:14:21Z</time>
      </trkpt>
      <trkpt lat="44.23695" lon="6.0083">
        <ele>1130.65</ele>
        <time>2013-06-09T07:14:38Z</time>
      </trkpt>
      <trkpt lat="44.23699" lon="6.00833">
        <ele>1130.65</ele>
        <time>2013-06-09T07:14:57Z</time>
      </trkpt>
      <trkpt lat="44.23697" lon="6.00834">
        <ele>1130.65</ele>
        <time>2013-06-09T07:15:20Z</time>
      </trkpt>
      <trkpt lat="44.23698" lon="6.00832">
        <ele>1131.13</ele>
        <time>2013-06-09T07:15:45Z</time>
      </trkpt>
      <trkpt lat="44.23692" lon="6.00822">
        <ele>1130.17</ele>
        <time>2013-06-09T07:16:04Z</time>
      </trkpt>
      <trkpt lat="44.23685" lon="6.00812">
        <ele>1130.65</ele>
        <time>2013-06-09T07:16:17Z</time>
      </trkpt>
      <trkpt lat="44.23677" lon="6.00808">
        <ele>1131.13</ele>
        <time>2013-06-09T07:16:27Z</time>
      </trkpt>
      <trkpt lat="44.23665" lon="6.00804">
        <ele>1129.21</ele>
        <time>2013-06-09T07:16:39Z</time>
      </trkpt>
      <trkpt lat="44.23658" lon="6.00801">
        <ele>1128.73</ele>
        <time>2013-06-09T07:16:50Z</time>
      </trkpt>
      <trkpt lat="44.2365" lon="6.00795">
        <ele>1128.73</ele>
        <time>2013-06-09T07:17:01Z</time>
      </trkpt>
      <trkpt lat="44.23642" lon="6.00784">
        <ele>1127.76</ele>
        <time>2013-06-09T07:17:13Z</time>
      </trkpt>
      <trkpt lat="44.23638" lon="6.00769">
        <ele>1126.8</ele>
        <time>2013-06-09T07:17:24Z</time>
      </trkpt>
      <trkpt lat="44.23637" lon="6.00764">
        <ele>1126.32</ele>
        <time>2013-06-09T07:17:28Z</time>
      </trkpt>
      <trkpt lat="44.23636" lon="6.00747">
        <ele>1127.28</ele>
        <time>2013-06-09T07:17:39Z</time>
      </trkpt>
      <trkpt lat="44.23636" lon="6.00742">
        <ele>1126.8</ele>
        <time>2013-06-09T07:17:43Z</time>
      </trkpt>
      <trkpt lat="44.23634" lon="6.0073">
        <ele>1128.24</ele>
        <time>2013-06-09T07:17:57Z</time>
      </trkpt>
      <trkpt lat="44.23627" lon="6.00733">
        <ele>1129.21</ele>
        <time>2013-06-09T07:18:11Z</time>
      </trkpt>
      <trkpt lat="44.23623" lon="6.00737">
        <ele>1129.21</ele>
        <time>2013-06-09T07:18:22Z</time>
      </trkpt>
      <trkpt lat="44.23612" lon="6.00743">
        <ele>1130.65</ele>
        <time>2013-06-09T07:18:35Z</time>
      </trkpt>
      <trkpt lat="44.23611" lon="6.00741">
        <ele>1130.65</ele>
        <time>2013-06-09T07:18:55Z</time>
      </trkpt>
      <trkpt lat="44.23598" lon="6.00747">
        <ele>1131.13</ele>
        <time>2013-06-09T07:19:10Z</time>
      </trkpt>
      <trkpt lat="44.23584" lon="6.00745">
        <ele>1133.05</ele>
        <time>2013-06-09T07:19:28Z</time>
      </trkpt>
      <trkpt lat="44.23568" lon="6.00741">
        <ele>1132.57</ele>
        <time>2013-06-09T07:19:44Z</time>
      </trkpt>
      <trkpt lat="44.23557" lon="6.00736">
        <ele>1135.45</ele>
        <time>2013-06-09T07:19:55Z</time>
      </trkpt>
      <trkpt lat="44.23552" lon="6.0073">
        <ele>1135.45</ele>
        <time>2013-06-09T07:20:01Z</time>
      </trkpt>
      <trkpt lat="44.23542" lon="6.00717">
        <ele>1135.45</ele>
        <time>2013-06-09T07:20:17Z</time>
      </trkpt>
      <trkpt lat="44.23539" lon="6.00714">
        <ele>1138.82</ele>
        <time>2013-06-09T07:20:23Z</time>
      </trkpt>
      <trkpt lat="44.23536" lon="6.00711">
        <ele>1138.34</ele>
        <time>2013-06-09T07:20:27Z</time>
      </trkpt>
      <trkpt lat="44.23528" lon="6.00698">
        <ele>1139.3</ele>
        <time>2013-06-09T07:20:41Z</time>
      </trkpt>
      <trkpt lat="44.23522" lon="6.00671">
        <ele>1140.74</ele>
        <time>2013-06-09T07:21:02Z</time>
      </trkpt>
      <trkpt lat="44.23511" lon="6.00658">
        <ele>1140.26</ele>
        <time>2013-06-09T07:21:18Z</time>
      </trkpt>
      <trkpt lat="44.23499" lon="6.00643">
        <ele>1141.22</ele>
        <time>2013-06-09T07:21:31Z</time>
      </trkpt>
      <trkpt lat="44.23489" lon="6.00632">
        <ele>1141.22</ele>
        <time>2013-06-09T07:21:45Z</time>
      </trkpt>
      <trkpt lat="44.23476" lon="6.00615">
        <ele>1142.18</ele>
        <time>2013-06-09T07:22:04Z</time>
      </trkpt>
      <trkpt lat="44.23464" lon="6.00602">
        <ele>1141.22</ele>
        <time>2013-06-09T07:22:19Z</time>
      </trkpt>
      <trkpt lat="44.23456" lon="6.00595">
        <ele>1144.59</ele>
        <time>2013-06-09T07:22:32Z</time>
      </trkpt>
      <trkpt lat="44.23444" lon="6.00588">
        <ele>1144.11</ele>
        <time>2013-06-09T07:22:48Z</time>
      </trkpt>
      <trkpt lat="44.23431" lon="6.00584">
        <ele>1146.99</ele>
        <time>2013-06-09T07:23:05Z</time>
      </trkpt>
      <trkpt lat="44.23419" lon="6.00576">
        <ele>1147.95</ele>
        <time>2013-06-09T07:23:22Z</time>
      </trkpt>
      <trkpt lat="44.23409" lon="6.00568">
        <ele>1148.43</ele>
        <time>2013-06-09T07:23:36Z</time>
      </trkpt>
      <trkpt lat="44.23397" lon="6.00559">
        <ele>1151.8</ele>
        <time>2013-06-09T07:23:54Z</time>
      </trkpt>
      <trkpt lat="44.23385" lon="6.00548">
        <ele>1151.8</ele>
        <time>2013-06-09T07:24:12Z</time>
      </trkpt>
      <trkpt lat="44.23374" lon="6.00536">
        <ele>1152.28</ele>
        <time>2013-06-09T07:24:26Z</time>
      </trkpt>
      <trkpt lat="44.23371" lon="6.00524">
        <ele>1152.28</ele>
        <time>2013-06-09T07:24:38Z</time>
      </trkpt>
      <trkpt lat="44.23371" lon="6.00512">
        <ele>1154.2</ele>
        <time>2013-06-09T07:24:52Z</time>
      </trkpt>
      <trkpt lat="44.2337" lon="6.00489">
        <ele>1153.72</ele>
        <time>2013-06-09T07:25:08Z</time>
      </trkpt>
      <trkpt lat="44.23371" lon="6.00483">
        <ele>1153.24</ele>
        <time>2013-06-09T07:25:13Z</time>
      </trkpt>
      <trkpt lat="44.2337" lon="6.00463">
        <ele>1155.16</ele>
        <time>2013-06-09T07:25:31Z</time>
      </trkpt>
      <trkpt lat="44.23369" lon="6.00455">
        <ele>1155.16</ele>
        <time>2013-06-09T07:25:45Z</time>
      </trkpt>
      <trkpt lat="44.23373" lon="6.00446">
        <ele>1156.12</ele>
        <time>2013-06-09T07:26:00Z</time>
      </trkpt>
      <trkpt lat="44.23383" lon="6.00444">
        <ele>1158.05</ele>
        <time>2013-06-09T07:26:16Z</time>
      </trkpt>
      <trkpt lat="44.23387" lon="6.00447">
        <ele>1159.01</ele>
        <time>2013-06-09T07:26:32Z</time>
      </trkpt>
      <trkpt lat="44.23397" lon="6.00442">
        <ele>1159.01</ele>
        <time>2013-06-09T07:26:48Z</time>
      </trkpt>
      <trkpt lat="44.23406" lon="6.0044">
        <ele>1161.89</ele>
        <time>2013-06-09T07:27:01Z</time>
      </trkpt>
      <trkpt lat="44.23412" lon="6.00436">
        <ele>1163.81</ele>
        <time>2013-06-09T07:27:14Z</time>
      </trkpt>
      <trkpt lat="44.23416" lon="6.00426">
        <ele>1164.29</ele>
        <time>2013-06-09T07:27:28Z</time>
      </trkpt>
      <trkpt lat="44.23424" lon="6.00417">
        <ele>1165.26</ele>
        <time>2013-06-09T07:27:43Z</time>
      </trkpt>
      <trkpt lat="44.23432" lon="6.00411">
        <ele>1167.66</ele>
        <time>2013-06-09T07:27:59Z</time>
      </trkpt>
      <trkpt lat="44.23432" lon="6.00411">
        <ele>1164.29</ele>
        <time>2013-06-09T07:28:00Z</time>
      </trkpt>
      <trkpt lat="44.23433" lon="6.0041">
        <ele>1168.14</ele>
        <time>2013-06-09T07:28:01Z</time>
      </trkpt>
      <trkpt lat="44.23437" lon="6.00405">
        <ele>1168.14</ele>
        <time>2013-06-09T07:28:16Z</time>
      </trkpt>
      <trkpt lat="44.23445" lon="6.004">
        <ele>1169.58</ele>
        <time>2013-06-09T07:28:33Z</time>
      </trkpt>
      <trkpt lat="44.23448" lon="6.00389">
        <ele>1169.1</ele>
        <time>2013-06-09T07:28:48Z</time>
      </trkpt>
      <trkpt lat="44.23448" lon="6.00384">
        <ele>1171.98</ele>
        <time>2013-06-09T07:28:54Z</time>
      </trkpt>
      <trkpt lat="44.2345" lon="6.00378">
        <ele>1172.47</ele>
        <time>2013-06-09T07:29:03Z</time>
      </trkpt>
      <trkpt lat="44.23452" lon="6.00368">
        <ele>1171.98</ele>
        <time>2013-06-09T07:29:17Z</time>
      </trkpt>
      <trkpt lat="44.23453" lon="6.00368">
        <ele>1174.87</ele>
        <time>2013-06-09T07:29:18Z</time>
      </trkpt>
      <trkpt lat="44.23458" lon="6.00356">
        <ele>1174.39</ele>
        <time>2013-06-09T07:29:33Z</time>
      </trkpt>
      <trkpt lat="44.23464" lon="6.00347">
        <ele>1178.23</ele>
        <time>2013-06-09T07:29:49Z</time>
      </trkpt>
      <trkpt lat="44.2347" lon="6.00338">
        <ele>1179.19</ele>
        <time>2013-06-09T07:30:05Z</time>
      </trkpt>
      <trkpt lat="44.23475" lon="6.00331">
        <ele>1179.19</ele>
        <time>2013-06-09T07:30:22Z</time>
      </trkpt>
      <trkpt lat="44.23479" lon="6.00329">
        <ele>1182.56</ele>
        <time>2013-06-09T07:30:28Z</time>
      </trkpt>
      <trkpt lat="44.23486" lon="6.00319">
        <ele>1182.56</ele>
        <time>2013-06-09T07:30:42Z</time>
      </trkpt>
      <trkpt lat="44.23489" lon="6.00317">
        <ele>1184</ele>
        <time>2013-06-09T07:31:01Z</time>
      </trkpt>
      <trkpt lat="44.23493" lon="6.00304">
        <ele>1186.88</ele>
        <time>2013-06-09T07:31:16Z</time>
      </trkpt>
      <trkpt lat="44.23494" lon="6.00302">
        <ele>1184</ele>
        <time>2013-06-09T07:31:19Z</time>
      </trkpt>
      <trkpt lat="44.23495" lon="6.00301">
        <ele>1187.85</ele>
        <time>2013-06-09T07:31:23Z</time>
      </trkpt>
      <trkpt lat="44.23496" lon="6.003">
        <ele>1184</ele>
        <time>2013-06-09T07:31:24Z</time>
      </trkpt>
      <trkpt lat="44.23496" lon="6.003">
        <ele>1187.85</ele>
        <time>2013-06-09T07:31:25Z</time>
      </trkpt>
      <trkpt lat="44.23503" lon="6.00294">
        <ele>1188.33</ele>
        <time>2013-06-09T07:31:41Z</time>
      </trkpt>
      <trkpt lat="44.23509" lon="6.00292">
        <ele>1189.77</ele>
        <time>2013-06-09T07:31:55Z</time>
      </trkpt>
      <trkpt lat="44.23514" lon="6.00283">
        <ele>1190.73</ele>
        <time>2013-06-09T07:32:15Z</time>
      </trkpt>
      <trkpt lat="44.23518" lon="6.00278">
        <ele>1193.61</ele>
        <time>2013-06-09T07:32:24Z</time>
      </trkpt>
      <trkpt lat="44.23529" lon="6.00271">
        <ele>1195.54</ele>
        <time>2013-06-09T07:32:41Z</time>
      </trkpt>
      <trkpt lat="44.23538" lon="6.00268">
        <ele>1197.46</ele>
        <time>2013-06-09T07:32:57Z</time>
      </trkpt>
      <trkpt lat="44.23545" lon="6.0026">
        <ele>1200.34</ele>
        <time>2013-06-09T07:33:14Z</time>
      </trkpt>
      <trkpt lat="44.23554" lon="6.00253">
        <ele>1200.34</ele>
        <time>2013-06-09T07:33:30Z</time>
      </trkpt>
      <trkpt lat="44.23561" lon="6.00242">
        <ele>1203.71</ele>
        <time>2013-06-09T07:33:45Z</time>
      </trkpt>
      <trkpt lat="44.23569" lon="6.00235">
        <ele>1205.63</ele>
        <time>2013-06-09T07:33:59Z</time>
      </trkpt>
      <trkpt lat="44.23578" lon="6.00227">
        <ele>1206.59</ele>
        <time>2013-06-09T07:34:14Z</time>
      </trkpt>
      <trkpt lat="44.23584" lon="6.00218">
        <ele>1209.48</ele>
        <time>2013-06-09T07:34:27Z</time>
      </trkpt>
      <trkpt lat="44.23593" lon="6.00213">
        <ele>1209.48</ele>
        <time>2013-06-09T07:34:40Z</time>
      </trkpt>
      <trkpt lat="44.23602" lon="6.00209">
        <ele>1210.44</ele>
        <time>2013-06-09T07:34:53Z</time>
      </trkpt>
      <trkpt lat="44.23608" lon="6.00208">
        <ele>1212.36</ele>
        <time>2013-06-09T07:35:06Z</time>
      </trkpt>
      <trkpt lat="44.23611" lon="6.00207">
        <ele>1212.36</ele>
        <time>2013-06-09T07:35:26Z</time>
      </trkpt>
      <trkpt lat="44.2361" lon="6.00208">
        <ele>1211.88</ele>
        <time>2013-06-09T07:35:46Z</time>
      </trkpt>
      <trkpt lat="44.2361" lon="6.00207">
        <ele>1211.88</ele>
        <time>2013-06-09T07:36:11Z</time>
      </trkpt>
      <trkpt lat="44.23609" lon="6.00205">
        <ele>1212.36</ele>
        <time>2013-06-09T07:36:35Z</time>
      </trkpt>
      <trkpt lat="44.23608" lon="6.00207">
        <ele>1212.36</ele>
        <time>2013-06-09T07:37:00Z</time>
      </trkpt>
      <trkpt lat="44.2361" lon="6.00208">
        <ele>1211.88</ele>
        <time>2013-06-09T07:37:19Z</time>
      </trkpt>
      <trkpt lat="44.23611" lon="6.00201">
        <ele>1211.4</ele>
        <time>2013-06-09T07:37:36Z</time>
      </trkpt>
      <trkpt lat="44.23609" lon="6.00191">
        <ele>1213.32</ele>
        <time>2013-06-09T07:37:47Z</time>
      </trkpt>
      <trkpt lat="44.23608" lon="6.00177">
        <ele>1212.36</ele>
        <time>2013-06-09T07:38:01Z</time>
      </trkpt>
      <trkpt lat="44.23606" lon="6.00164">
        <ele>1211.4</ele>
        <time>2013-06-09T07:38:14Z</time>
      </trkpt>
      <trkpt lat="44.23604" lon="6.00156">
        <ele>1209.96</ele>
        <time>2013-06-09T07:38:24Z</time>
      </trkpt>
      <trkpt lat="44.23611" lon="6.00144">
        <ele>1210.92</ele>
        <time>2013-06-09T07:38:39Z</time>
      </trkpt>
      <trkpt lat="44.23609" lon="6.00129">
        <ele>1212.84</ele>
        <time>2013-06-09T07:38:53Z</time>
      </trkpt>
      <trkpt lat="44.23605" lon="6.00115">
        <ele>1212.36</ele>
        <time>2013-06-09T07:39:06Z</time>
      </trkpt>
      <trkpt lat="44.23598" lon="6.001">
        <ele>1210.44</ele>
        <time>2013-06-09T07:39:20Z</time>
      </trkpt>
      <trkpt lat="44.23593" lon="6.00086">
        <ele>1210.44</ele>
        <time>2013-06-09T07:39:35Z</time>
      </trkpt>
      <trkpt lat="44.23592" lon="6.00076">
        <ele>1209.96</ele>
        <time>2013-06-09T07:39:47Z</time>
      </trkpt>
      <trkpt lat="44.23595" lon="6.00062">
        <ele>1213.8</ele>
        <time>2013-06-09T07:39:59Z</time>
      </trkpt>
      <trkpt lat="44.23596" lon="6.00061">
        <ele>1210.44</ele>
        <time>2013-06-09T07:40:00Z</time>
      </trkpt>
      <trkpt lat="44.23593" lon="6.00054">
        <ele>1212.36</ele>
        <time>2013-06-09T07:40:15Z</time>
      </trkpt>
      <trkpt lat="44.23586" lon="6.00053">
        <ele>1212.36</ele>
        <time>2013-06-09T07:40:36Z</time>
      </trkpt>
      <trkpt lat="44.23582" lon="6.00048">
        <ele>1212.36</ele>
        <time>2013-06-09T07:40:52Z</time>
      </trkpt>
      <trkpt lat="44.23579" lon="6.00049">
        <ele>1213.8</ele>
        <time>2013-06-09T07:41:11Z</time>
      </trkpt>
      <trkpt lat="44.23573" lon="6.00036">
        <ele>1214.28</ele>
        <time>2013-06-09T07:41:26Z</time>
      </trkpt>
      <trkpt lat="44.23562" lon="6.00031">
        <ele>1217.17</ele>
        <time>2013-06-09T07:41:41Z</time>
      </trkpt>
      <trkpt lat="44.2356" lon="6.00025">
        <ele>1215.72</ele>
        <time>2013-06-09T07:41:55Z</time>
      </trkpt>
      <trkpt lat="44.2356" lon="6.00022">
        <ele>1216.69</ele>
        <time>2013-06-09T07:42:10Z</time>
      </trkpt>
      <trkpt lat="44.23556" lon="6.00014">
        <ele>1216.21</ele>
        <time>2013-06-09T07:42:24Z</time>
      </trkpt>
      <trkpt lat="44.23552" lon="6.00004">
        <ele>1215.72</ele>
        <time>2013-06-09T07:42:37Z</time>
      </trkpt>
      <trkpt lat="44.23548" lon="5.9999">
        <ele>1216.21</ele>
        <time>2013-06-09T07:42:50Z</time>
      </trkpt>
      <trkpt lat="44.23544" lon="5.99976">
        <ele>1217.65</ele>
        <time>2013-06-09T07:43:04Z</time>
      </trkpt>
      <trkpt lat="44.23537" lon="5.99971">
        <ele>1216.69</ele>
        <time>2013-06-09T07:43:17Z</time>
      </trkpt>
      <trkpt lat="44.23532" lon="5.99968">
        <ele>1215.24</ele>
        <time>2013-06-09T07:43:30Z</time>
      </trkpt>
      <trkpt lat="44.23527" lon="5.99962">
        <ele>1214.76</ele>
        <time>2013-06-09T07:43:43Z</time>
      </trkpt>
      <trkpt lat="44.23521" lon="5.9995">
        <ele>1214.76</ele>
        <time>2013-06-09T07:43:56Z</time>
      </trkpt>
      <trkpt lat="44.23521" lon="5.99935">
        <ele>1214.76</ele>
        <time>2013-06-09T07:44:09Z</time>
      </trkpt>
      <trkpt lat="44.23521" lon="5.9993">
        <ele>1216.69</ele>
        <time>2013-06-09T07:44:25Z</time>
      </trkpt>
      <trkpt lat="44.2352" lon="5.9993">
        <ele>1216.69</ele>
        <time>2013-06-09T07:44:43Z</time>
      </trkpt>
      <trkpt lat="44.23517" lon="5.99923">
        <ele>1217.17</ele>
        <time>2013-06-09T07:45:03Z</time>
      </trkpt>
      <trkpt lat="44.23507" lon="5.9992">
        <ele>1216.21</ele>
        <time>2013-06-09T07:45:15Z</time>
      </trkpt>
      <trkpt lat="44.23495" lon="5.99922">
        <ele>1217.65</ele>
        <time>2013-06-09T07:45:29Z</time>
      </trkpt>
      <trkpt lat="44.23483" lon="5.99926">
        <ele>1214.76</ele>
        <time>2013-06-09T07:45:42Z</time>
      </trkpt>
      <trkpt lat="44.23475" lon="5.99921">
        <ele>1218.13</ele>
        <time>2013-06-09T07:45:53Z</time>
      </trkpt>
      <trkpt lat="44.2346" lon="5.99918">
        <ele>1216.21</ele>
        <time>2013-06-09T07:46:09Z</time>
      </trkpt>
      <trkpt lat="44.2345" lon="5.99907">
        <ele>1214.76</ele>
        <time>2013-06-09T07:46:25Z</time>
      </trkpt>
      <trkpt lat="44.23442" lon="5.99892">
        <ele>1217.65</ele>
        <time>2013-06-09T07:46:41Z</time>
      </trkpt>
      <trkpt lat="44.2344" lon="5.99885">
        <ele>1214.28</ele>
        <time>2013-06-09T07:46:47Z</time>
      </trkpt>
      <trkpt lat="44.23439" lon="5.99885">
        <ele>1217.65</ele>
        <time>2013-06-09T07:46:48Z</time>
      </trkpt>
      <trkpt lat="44.23437" lon="5.9987">
        <ele>1217.17</ele>
        <time>2013-06-09T07:47:03Z</time>
      </trkpt>
      <trkpt lat="44.23438" lon="5.99864">
        <ele>1220.53</ele>
        <time>2013-06-09T07:47:08Z</time>
      </trkpt>
      <trkpt lat="44.23437" lon="5.9985">
        <ele>1220.53</ele>
        <time>2013-06-09T07:47:22Z</time>
      </trkpt>
      <trkpt lat="44.23437" lon="5.99837">
        <ele>1223.42</ele>
        <time>2013-06-09T07:47:33Z</time>
      </trkpt>
      <trkpt lat="44.23438" lon="5.99837">
        <ele>1220.53</ele>
        <time>2013-06-09T07:47:34Z</time>
      </trkpt>
      <trkpt lat="44.23437" lon="5.99837">
        <ele>1223.42</ele>
        <time>2013-06-09T07:47:35Z</time>
      </trkpt>
      <trkpt lat="44.23434" lon="5.99831">
        <ele>1222.93</ele>
        <time>2013-06-09T07:47:47Z</time>
      </trkpt>
      <trkpt lat="44.23429" lon="5.99826">
        <ele>1222.45</ele>
        <time>2013-06-09T07:48:03Z</time>
      </trkpt>
      <trkpt lat="44.23423" lon="5.99813">
        <ele>1223.9</ele>
        <time>2013-06-09T07:48:17Z</time>
      </trkpt>
      <trkpt lat="44.23423" lon="5.99806">
        <ele>1225.82</ele>
        <time>2013-06-09T07:48:29Z</time>
      </trkpt>
      <trkpt lat="44.23425" lon="5.998">
        <ele>1225.82</ele>
        <time>2013-06-09T07:48:42Z</time>
      </trkpt>
      <trkpt lat="44.23427" lon="5.99784">
        <ele>1226.3</ele>
        <time>2013-06-09T07:48:55Z</time>
      </trkpt>
      <trkpt lat="44.23427" lon="5.99769">
        <ele>1229.66</ele>
        <time>2013-06-09T07:49:09Z</time>
      </trkpt>
      <trkpt lat="44.23422" lon="5.99759">
        <ele>1229.66</ele>
        <time>2013-06-09T07:49:22Z</time>
      </trkpt>
      <trkpt lat="44.23416" lon="5.99744">
        <ele>1232.07</ele>
        <time>2013-06-09T07:49:36Z</time>
      </trkpt>
      <trkpt lat="44.23409" lon="5.99729">
        <ele>1231.59</ele>
        <time>2013-06-09T07:49:50Z</time>
      </trkpt>
      <trkpt lat="44.23405" lon="5.99722">
        <ele>1234.95</ele>
        <time>2013-06-09T07:50:00Z</time>
      </trkpt>
      <trkpt lat="44.23398" lon="5.99713">
        <ele>1235.91</ele>
        <time>2013-06-09T07:50:14Z</time>
      </trkpt>
      <trkpt lat="44.23397" lon="5.99712">
        <ele>1234.95</ele>
        <time>2013-06-09T07:50:28Z</time>
      </trkpt>
      <trkpt lat="44.23391" lon="5.99706">
        <ele>1233.99</ele>
        <time>2013-06-09T07:50:45Z</time>
      </trkpt>
      <trkpt lat="44.23386" lon="5.99701">
        <ele>1237.35</ele>
        <time>2013-06-09T07:50:55Z</time>
      </trkpt>
      <trkpt lat="44.23383" lon="5.99687">
        <ele>1238.8</ele>
        <time>2013-06-09T07:51:10Z</time>
      </trkpt>
      <trkpt lat="44.2338" lon="5.99679">
        <ele>1237.83</ele>
        <time>2013-06-09T07:51:22Z</time>
      </trkpt>
      <trkpt lat="44.23377" lon="5.99669">
        <ele>1237.35</ele>
        <time>2013-06-09T07:51:32Z</time>
      </trkpt>
      <trkpt lat="44.23377" lon="5.99671">
        <ele>1238.32</ele>
        <time>2013-06-09T07:51:39Z</time>
      </trkpt>
      <trkpt lat="44.23375" lon="5.99667">
        <ele>1238.8</ele>
        <time>2013-06-09T07:51:46Z</time>
      </trkpt>
      <trkpt lat="44.23372" lon="5.99656">
        <ele>1238.8</ele>
        <time>2013-06-09T07:51:59Z</time>
      </trkpt>
      <trkpt lat="44.23368" lon="5.99641">
        <ele>1238.8</ele>
        <time>2013-06-09T07:52:12Z</time>
      </trkpt>
      <trkpt lat="44.23365" lon="5.99624">
        <ele>1239.28</ele>
        <time>2013-06-09T07:52:27Z</time>
      </trkpt>
      <trkpt lat="44.23363" lon="5.99621">
        <ele>1238.32</ele>
        <time>2013-06-09T07:52:38Z</time>
      </trkpt>
      <trkpt lat="44.2336" lon="5.99614">
        <ele>1237.35</ele>
        <time>2013-06-09T07:52:48Z</time>
      </trkpt>
      <trkpt lat="44.23356" lon="5.99602">
        <ele>1233.51</ele>
        <time>2013-06-09T07:53:01Z</time>
      </trkpt>
      <trkpt lat="44.23353" lon="5.99594">
        <ele>1236.87</ele>
        <time>2013-06-09T07:53:14Z</time>
      </trkpt>
      <trkpt lat="44.23352" lon="5.99592">
        <ele>1236.39</ele>
        <time>2013-06-09T07:53:18Z</time>
      </trkpt>
      <trkpt lat="44.23349" lon="5.9958">
        <ele>1239.28</ele>
        <time>2013-06-09T07:53:35Z</time>
      </trkpt>
      <trkpt lat="44.23347" lon="5.99569">
        <ele>1243.12</ele>
        <time>2013-06-09T07:53:49Z</time>
      </trkpt>
      <trkpt lat="44.23347" lon="5.99568">
        <ele>1240.24</ele>
        <time>2013-06-09T07:53:51Z</time>
      </trkpt>
      <trkpt lat="44.23347" lon="5.99567">
        <ele>1244.08</ele>
        <time>2013-06-09T07:53:52Z</time>
      </trkpt>
      <trkpt lat="44.23341" lon="5.99558">
        <ele>1246.49</ele>
        <time>2013-06-09T07:54:07Z</time>
      </trkpt>
      <trkpt lat="44.23337" lon="5.99555">
        <ele>1248.41</ele>
        <time>2013-06-09T07:54:20Z</time>
      </trkpt>
      <trkpt lat="44.2333" lon="5.9955">
        <ele>1251.77</ele>
        <time>2013-06-09T07:54:35Z</time>
      </trkpt>
      <trkpt lat="44.23322" lon="5.99545">
        <ele>1251.77</ele>
        <time>2013-06-09T07:54:49Z</time>
      </trkpt>
      <trkpt lat="44.23311" lon="5.99534">
        <ele>1253.7</ele>
        <time>2013-06-09T07:55:05Z</time>
      </trkpt>
      <trkpt lat="44.23302" lon="5.99532">
        <ele>1252.74</ele>
        <time>2013-06-09T07:55:14Z</time>
      </trkpt>
      <trkpt lat="44.23297" lon="5.99528">
        <ele>1251.77</ele>
        <time>2013-06-09T07:55:26Z</time>
      </trkpt>
      <trkpt lat="44.23297" lon="5.9953">
        <ele>1252.25</ele>
        <time>2013-06-09T07:55:53Z</time>
      </trkpt>
      <trkpt lat="44.23297" lon="5.99525">
        <ele>1252.25</ele>
        <time>2013-06-09T07:56:11Z</time>
      </trkpt>
      <trkpt lat="44.23293" lon="5.99516">
        <ele>1252.25</ele>
        <time>2013-06-09T07:56:24Z</time>
      </trkpt>
      <trkpt lat="44.23282" lon="5.99511">
        <ele>1251.29</ele>
        <time>2013-06-09T07:56:37Z</time>
      </trkpt>
      <trkpt lat="44.23276" lon="5.99508">
        <ele>1250.81</ele>
        <time>2013-06-09T07:56:44Z</time>
      </trkpt>
      <trkpt lat="44.23264" lon="5.99493">
        <ele>1249.37</ele>
        <time>2013-06-09T07:56:59Z</time>
      </trkpt>
      <trkpt lat="44.23262" lon="5.99476">
        <ele>1249.37</ele>
        <time>2013-06-09T07:57:13Z</time>
      </trkpt>
      <trkpt lat="44.23264" lon="5.99459">
        <ele>1250.33</ele>
        <time>2013-06-09T07:57:28Z</time>
      </trkpt>
      <trkpt lat="44.23264" lon="5.9944">
        <ele>1249.37</ele>
        <time>2013-06-09T07:57:41Z</time>
      </trkpt>
      <trkpt lat="44.23262" lon="5.99426">
        <ele>1248.89</ele>
        <time>2013-06-09T07:57:55Z</time>
      </trkpt>
      <trkpt lat="44.2326" lon="5.99414">
        <ele>1248.89</ele>
        <time>2013-06-09T07:58:03Z</time>
      </trkpt>
      <trkpt lat="44.23261" lon="5.99398">
        <ele>1247.45</ele>
        <time>2013-06-09T07:58:16Z</time>
      </trkpt>
      <trkpt lat="44.23261" lon="5.9939">
        <ele>1247.45</ele>
        <time>2013-06-09T07:58:28Z</time>
      </trkpt>
      <trkpt lat="44.23263" lon="5.99389">
        <ele>1247.45</ele>
        <time>2013-06-09T07:58:53Z</time>
      </trkpt>
      <trkpt lat="44.23265" lon="5.99381">
        <ele>1247.45</ele>
        <time>2013-06-09T07:59:28Z</time>
      </trkpt>
      <trkpt lat="44.23258" lon="5.99383">
        <ele>1246.97</ele>
        <time>2013-06-09T07:59:57Z</time>
      </trkpt>
      <trkpt lat="44.23257" lon="5.99372">
        <ele>1246.49</ele>
        <time>2013-06-09T08:00:11Z</time>
      </trkpt>
      <trkpt lat="44.23259" lon="5.99358">
        <ele>1246.49</ele>
        <time>2013-06-09T08:00:24Z</time>
      </trkpt>
      <trkpt lat="44.23259" lon="5.99345">
        <ele>1243.12</ele>
        <time>2013-06-09T08:00:36Z</time>
      </trkpt>
      <trkpt lat="44.23257" lon="5.99342">
        <ele>1246.01</ele>
        <time>2013-06-09T08:00:39Z</time>
      </trkpt>
      <trkpt lat="44.23252" lon="5.99333">
        <ele>1245.53</ele>
        <time>2013-06-09T08:00:49Z</time>
      </trkpt>
      <trkpt lat="44.23244" lon="5.99316">
        <ele>1245.04</ele>
        <time>2013-06-09T08:01:03Z</time>
      </trkpt>
      <trkpt lat="44.23241" lon="5.99297">
        <ele>1245.53</ele>
        <time>2013-06-09T08:01:18Z</time>
      </trkpt>
      <trkpt lat="44.23243" lon="5.99287">
        <ele>1248.89</ele>
        <time>2013-06-09T08:01:29Z</time>
      </trkpt>
      <trkpt lat="44.23244" lon="5.99271">
        <ele>1248.89</ele>
        <time>2013-06-09T08:01:43Z</time>
      </trkpt>
      <trkpt lat="44.23248" lon="5.99262">
        <ele>1252.74</ele>
        <time>2013-06-09T08:01:52Z</time>
      </trkpt>
      <trkpt lat="44.23252" lon="5.99251">
        <ele>1254.18</ele>
        <time>2013-06-09T08:02:06Z</time>
      </trkpt>
      <trkpt lat="44.2326" lon="5.99243">
        <ele>1254.18</ele>
        <time>2013-06-09T08:02:20Z</time>
      </trkpt>
      <trkpt lat="44.23256" lon="5.9924">
        <ele>1254.66</ele>
        <time>2013-06-09T08:02:32Z</time>
      </trkpt>
      <trkpt lat="44.23247" lon="5.99239">
        <ele>1254.66</ele>
        <time>2013-06-09T08:02:45Z</time>
      </trkpt>
      <trkpt lat="44.23239" lon="5.99234">
        <ele>1255.62</ele>
        <time>2013-06-09T08:02:58Z</time>
      </trkpt>
      <trkpt lat="44.23239" lon="5.99233">
        <ele>1252.74</ele>
        <time>2013-06-09T08:02:59Z</time>
      </trkpt>
      <trkpt lat="44.23239" lon="5.99232">
        <ele>1255.62</ele>
        <time>2013-06-09T08:03:00Z</time>
      </trkpt>
      <trkpt lat="44.23237" lon="5.9923">
        <ele>1256.1</ele>
        <time>2013-06-09T08:03:04Z</time>
      </trkpt>
      <trkpt lat="44.23234" lon="5.99226">
        <ele>1258.98</ele>
        <time>2013-06-09T08:03:12Z</time>
      </trkpt>
      <trkpt lat="44.23234" lon="5.99226">
        <ele>1256.1</ele>
        <time>2013-06-09T08:03:13Z</time>
      </trkpt>
      <trkpt lat="44.23232" lon="5.99222">
        <ele>1258.98</ele>
        <time>2013-06-09T08:03:19Z</time>
      </trkpt>
      <trkpt lat="44.23225" lon="5.99218">
        <ele>1258.5</ele>
        <time>2013-06-09T08:03:30Z</time>
      </trkpt>
      <trkpt lat="44.23224" lon="5.99216">
        <ele>1259.94</ele>
        <time>2013-06-09T08:03:32Z</time>
      </trkpt>
      <trkpt lat="44.23217" lon="5.9921">
        <ele>1262.35</ele>
        <time>2013-06-09T08:03:43Z</time>
      </trkpt>
      <trkpt lat="44.23218" lon="5.99202">
        <ele>1262.83</ele>
        <time>2013-06-09T08:03:53Z</time>
      </trkpt>
      <trkpt lat="44.23219" lon="5.99198">
        <ele>1262.83</ele>
        <time>2013-06-09T08:04:03Z</time>
      </trkpt>
      <trkpt lat="44.23221" lon="5.99195">
        <ele>1263.31</ele>
        <time>2013-06-09T08:04:21Z</time>
      </trkpt>
      <trkpt lat="44.23223" lon="5.9919">
        <ele>1264.27</ele>
        <time>2013-06-09T08:04:44Z</time>
      </trkpt>
      <trkpt lat="44.2322" lon="5.99191">
        <ele>1264.27</ele>
        <time>2013-06-09T08:05:13Z</time>
      </trkpt>
      <trkpt lat="44.23221" lon="5.99192">
        <ele>1264.75</ele>
        <time>2013-06-09T08:05:37Z</time>
      </trkpt>
      <trkpt lat="44.2322" lon="5.9919">
        <ele>1264.27</ele>
        <time>2013-06-09T08:05:58Z</time>
      </trkpt>
      <trkpt lat="44.23222" lon="5.99183">
        <ele>1266.19</ele>
        <time>2013-06-09T08:06:11Z</time>
      </trkpt>
      <trkpt lat="44.23225" lon="5.99174">
        <ele>1266.19</ele>
        <time>2013-06-09T08:06:25Z</time>
      </trkpt>
      <trkpt lat="44.23226" lon="5.99165">
        <ele>1269.56</ele>
        <time>2013-06-09T08:06:37Z</time>
      </trkpt>
      <trkpt lat="44.23228" lon="5.99154">
        <ele>1270.52</ele>
        <time>2013-06-09T08:06:52Z</time>
      </trkpt>
      <trkpt lat="44.23228" lon="5.99144">
        <ele>1273.88</ele>
        <time>2013-06-09T08:07:03Z</time>
      </trkpt>
      <trkpt lat="44.2323" lon="5.99132">
        <ele>1275.81</ele>
        <time>2013-06-09T08:07:18Z</time>
      </trkpt>
      <trkpt lat="44.2323" lon="5.99126">
        <ele>1276.77</ele>
        <time>2013-06-09T08:07:31Z</time>
      </trkpt>
      <trkpt lat="44.23234" lon="5.9912">
        <ele>1276.77</ele>
        <time>2013-06-09T08:07:44Z</time>
      </trkpt>
      <trkpt lat="44.23234" lon="5.99113">
        <ele>1279.65</ele>
        <time>2013-06-09T08:07:53Z</time>
      </trkpt>
      <trkpt lat="44.23234" lon="5.99102">
        <ele>1281.57</ele>
        <time>2013-06-09T08:08:09Z</time>
      </trkpt>
      <trkpt lat="44.23232" lon="5.9909">
        <ele>1283.5</ele>
        <time>2013-06-09T08:08:24Z</time>
      </trkpt>
      <trkpt lat="44.23232" lon="5.99089">
        <ele>1282.54</ele>
        <time>2013-06-09T08:08:25Z</time>
      </trkpt>
      <trkpt lat="44.23226" lon="5.99077">
        <ele>1283.02</ele>
        <time>2013-06-09T08:08:39Z</time>
      </trkpt>
      <trkpt lat="44.23219" lon="5.99065">
        <ele>1286.38</ele>
        <time>2013-06-09T08:08:54Z</time>
      </trkpt>
      <trkpt lat="44.23213" lon="5.99052">
        <ele>1285.9</ele>
        <time>2013-06-09T08:09:07Z</time>
      </trkpt>
      <trkpt lat="44.23211" lon="5.99044">
        <ele>1286.86</ele>
        <time>2013-06-09T08:09:21Z</time>
      </trkpt>
      <trkpt lat="44.23213" lon="5.99047">
        <ele>1286.86</ele>
        <time>2013-06-09T08:09:47Z</time>
      </trkpt>
      <trkpt lat="44.23213" lon="5.99042">
        <ele>1287.34</ele>
        <time>2013-06-09T08:10:10Z</time>
      </trkpt>
      <trkpt lat="44.23215" lon="5.99041">
        <ele>1286.38</ele>
        <time>2013-06-09T08:10:33Z</time>
      </trkpt>
      <trkpt lat="44.23211" lon="5.99042">
        <ele>1287.34</ele>
        <time>2013-06-09T08:10:54Z</time>
      </trkpt>
      <trkpt lat="44.23214" lon="5.99048">
        <ele>1287.34</ele>
        <time>2013-06-09T08:11:13Z</time>
      </trkpt>
      <trkpt lat="44.23214" lon="5.99049">
        <ele>1287.82</ele>
        <time>2013-06-09T08:11:41Z</time>
      </trkpt>
      <trkpt lat="44.23215" lon="5.99047">
        <ele>1287.82</ele>
        <time>2013-06-09T08:12:02Z</time>
      </trkpt>
      <trkpt lat="44.23216" lon="5.99051">
        <ele>1288.3</ele>
        <time>2013-06-09T08:12:33Z</time>
      </trkpt>
      <trkpt lat="44.23211" lon="5.99052">
        <ele>1287.34</ele>
        <time>2013-06-09T08:12:48Z</time>
      </trkpt>
      <trkpt lat="44.2321" lon="5.99055">
        <ele>1286.38</ele>
        <time>2013-06-09T08:13:01Z</time>
      </trkpt>
      <trkpt lat="44.2321" lon="5.99054">
        <ele>1287.34</ele>
        <time>2013-06-09T08:13:23Z</time>
      </trkpt>
      <trkpt lat="44.23211" lon="5.99051">
        <ele>1286.86</ele>
        <time>2013-06-09T08:13:50Z</time>
      </trkpt>
      <trkpt lat="44.23211" lon="5.99053">
        <ele>1287.34</ele>
        <time>2013-06-09T08:14:09Z</time>
      </trkpt>
      <trkpt lat="44.23212" lon="5.99056">
        <ele>1286.86</ele>
        <time>2013-06-09T08:14:31Z</time>
      </trkpt>
      <trkpt lat="44.23213" lon="5.99055">
        <ele>1285.9</ele>
        <time>2013-06-09T08:14:35Z</time>
      </trkpt>
      <trkpt lat="44.23213" lon="5.9905">
        <ele>1290.23</ele>
        <time>2013-06-09T08:14:47Z</time>
      </trkpt>
      <trkpt lat="44.23213" lon="5.9905">
        <ele>1286.86</ele>
        <time>2013-06-09T08:14:48Z</time>
      </trkpt>
      <trkpt lat="44.23212" lon="5.99047">
        <ele>1289.75</ele>
        <time>2013-06-09T08:15:01Z</time>
      </trkpt>
      <trkpt lat="44.23212" lon="5.99046">
        <ele>1287.82</ele>
        <time>2013-06-09T08:15:02Z</time>
      </trkpt>
      <trkpt lat="44.23214" lon="5.99044">
        <ele>1289.27</ele>
        <time>2013-06-09T08:15:15Z</time>
      </trkpt>
      <trkpt lat="44.23216" lon="5.99045">
        <ele>1289.75</ele>
        <time>2013-06-09T08:15:38Z</time>
      </trkpt>
      <trkpt lat="44.23216" lon="5.99043">
        <ele>1289.27</ele>
        <time>2013-06-09T08:15:58Z</time>
      </trkpt>
      <trkpt lat="44.23217" lon="5.99041">
        <ele>1293.11</ele>
        <time>2013-06-09T08:16:19Z</time>
      </trkpt>
      <trkpt lat="44.23217" lon="5.99041">
        <ele>1289.27</ele>
        <time>2013-06-09T08:16:20Z</time>
      </trkpt>
      <trkpt lat="44.23219" lon="5.99037">
        <ele>1290.71</ele>
        <time>2013-06-09T08:16:36Z</time>
      </trkpt>
      <trkpt lat="44.23222" lon="5.99032">
        <ele>1292.63</ele>
        <time>2013-06-09T08:16:48Z</time>
      </trkpt>
      <trkpt lat="44.23224" lon="5.99027">
        <ele>1293.59</ele>
        <time>2013-06-09T08:17:01Z</time>
      </trkpt>
      <trkpt lat="44.23224" lon="5.99025">
        <ele>1294.55</ele>
        <time>2013-06-09T08:17:16Z</time>
      </trkpt>
      <trkpt lat="44.23231" lon="5.99018">
        <ele>1295.51</ele>
        <time>2013-06-09T08:17:31Z</time>
      </trkpt>
      <trkpt lat="44.23231" lon="5.99018">
        <ele>1294.07</ele>
        <time>2013-06-09T08:17:52Z</time>
      </trkpt>
      <trkpt lat="44.23232" lon="5.99018">
        <ele>1296.96</ele>
        <time>2013-06-09T08:17:53Z</time>
      </trkpt>
      <trkpt lat="44.23232" lon="5.99017">
        <ele>1293.59</ele>
        <time>2013-06-09T08:17:56Z</time>
      </trkpt>
      <trkpt lat="44.23233" lon="5.99017">
        <ele>1299.36</ele>
        <time>2013-06-09T08:18:00Z</time>
      </trkpt>
      <trkpt lat="44.23233" lon="5.99017">
        <ele>1295.51</ele>
        <time>2013-06-09T08:18:01Z</time>
      </trkpt>
      <trkpt lat="44.23235" lon="5.99013">
        <ele>1298.88</ele>
        <time>2013-06-09T08:18:11Z</time>
      </trkpt>
      <trkpt lat="44.23237" lon="5.99013">
        <ele>1295.51</ele>
        <time>2013-06-09T08:18:19Z</time>
      </trkpt>
      <trkpt lat="44.23237" lon="5.99013">
        <ele>1299.84</ele>
        <time>2013-06-09T08:18:20Z</time>
      </trkpt>
      <trkpt lat="44.23238" lon="5.99012">
        <ele>1296.48</ele>
        <time>2013-06-09T08:18:21Z</time>
      </trkpt>
      <trkpt lat="44.2324" lon="5.99009">
        <ele>1299.84</ele>
        <time>2013-06-09T08:18:27Z</time>
      </trkpt>
      <trkpt lat="44.23242" lon="5.99001">
        <ele>1301.28</ele>
        <time>2013-06-09T08:18:43Z</time>
      </trkpt>
      <trkpt lat="44.23244" lon="5.98997">
        <ele>1301.28</ele>
        <time>2013-06-09T08:19:00Z</time>
      </trkpt>
      <trkpt lat="44.23246" lon="5.98989">
        <ele>1306.09</ele>
        <time>2013-06-09T08:19:14Z</time>
      </trkpt>
      <trkpt lat="44.23244" lon="5.98976">
        <ele>1303.69</ele>
        <time>2013-06-09T08:19:29Z</time>
      </trkpt>
      <trkpt lat="44.23245" lon="5.98974">
        <ele>1305.61</ele>
        <time>2013-06-09T08:19:32Z</time>
      </trkpt>
      <trkpt lat="44.2325" lon="5.9897">
        <ele>1308.01</ele>
        <time>2013-06-09T08:19:46Z</time>
      </trkpt>
      <trkpt lat="44.2326" lon="5.98967">
        <ele>1309.93</ele>
        <time>2013-06-09T08:20:02Z</time>
      </trkpt>
      <trkpt lat="44.23262" lon="5.98962">
        <ele>1311.86</ele>
        <time>2013-06-09T08:20:12Z</time>
      </trkpt>
      <trkpt lat="44.23268" lon="5.98963">
        <ele>1309.93</ele>
        <time>2013-06-09T08:20:22Z</time>
      </trkpt>
      <trkpt lat="44.23276" lon="5.98959">
        <ele>1313.78</ele>
        <time>2013-06-09T08:20:36Z</time>
      </trkpt>
      <trkpt lat="44.2328" lon="5.98954">
        <ele>1314.26</ele>
        <time>2013-06-09T08:20:50Z</time>
      </trkpt>
      <trkpt lat="44.23281" lon="5.98954">
        <ele>1314.26</ele>
        <time>2013-06-09T08:21:11Z</time>
      </trkpt>
      <trkpt lat="44.23281" lon="5.98953">
        <ele>1310.9</ele>
        <time>2013-06-09T08:21:17Z</time>
      </trkpt>
      <trkpt lat="44.23281" lon="5.98952">
        <ele>1316.66</ele>
        <time>2013-06-09T08:21:18Z</time>
      </trkpt>
      <trkpt lat="44.23281" lon="5.98952">
        <ele>1315.22</ele>
        <time>2013-06-09T08:21:19Z</time>
      </trkpt>
      <trkpt lat="44.23282" lon="5.98954">
        <ele>1313.78</ele>
        <time>2013-06-09T08:21:30Z</time>
      </trkpt>
      <trkpt lat="44.23283" lon="5.98954">
        <ele>1314.74</ele>
        <time>2013-06-09T08:21:32Z</time>
      </trkpt>
      <trkpt lat="44.23279" lon="5.98947">
        <ele>1316.18</ele>
        <time>2013-06-09T08:21:45Z</time>
      </trkpt>
      <trkpt lat="44.23275" lon="5.98936">
        <ele>1316.18</ele>
        <time>2013-06-09T08:21:59Z</time>
      </trkpt>
      <trkpt lat="44.23276" lon="5.9893">
        <ele>1320.03</ele>
        <time>2013-06-09T08:22:11Z</time>
      </trkpt>
      <trkpt lat="44.23276" lon="5.98919">
        <ele>1321.95</ele>
        <time>2013-06-09T08:22:26Z</time>
      </trkpt>
      <trkpt lat="44.23281" lon="5.98911">
        <ele>1321.95</ele>
        <time>2013-06-09T08:22:39Z</time>
      </trkpt>
      <trkpt lat="44.23284" lon="5.98905">
        <ele>1323.87</ele>
        <time>2013-06-09T08:22:54Z</time>
      </trkpt>
      <trkpt lat="44.23284" lon="5.98901">
        <ele>1324.83</ele>
        <time>2013-06-09T08:23:09Z</time>
      </trkpt>
      <trkpt lat="44.23287" lon="5.98899">
        <ele>1325.8</ele>
        <time>2013-06-09T08:23:32Z</time>
      </trkpt>
      <trkpt lat="44.23289" lon="5.98889">
        <ele>1327.72</ele>
        <time>2013-06-09T08:23:47Z</time>
      </trkpt>
      <trkpt lat="44.2329" lon="5.98887">
        <ele>1328.68</ele>
        <time>2013-06-09T08:24:03Z</time>
      </trkpt>
      <trkpt lat="44.23293" lon="5.98885">
        <ele>1329.16</ele>
        <time>2013-06-09T08:24:18Z</time>
      </trkpt>
      <trkpt lat="44.23297" lon="5.98881">
        <ele>1328.68</ele>
        <time>2013-06-09T08:24:42Z</time>
      </trkpt>
      <trkpt lat="44.23297" lon="5.98881">
        <ele>1331.56</ele>
        <time>2013-06-09T08:24:43Z</time>
      </trkpt>
      <trkpt lat="44.23297" lon="5.98875">
        <ele>1327.72</ele>
        <time>2013-06-09T08:24:52Z</time>
      </trkpt>
      <trkpt lat="44.23298" lon="5.98874">
        <ele>1336.85</ele>
        <time>2013-06-09T08:24:53Z</time>
      </trkpt>
      <trkpt lat="44.23298" lon="5.98873">
        <ele>1332.04</ele>
        <time>2013-06-09T08:24:54Z</time>
      </trkpt>
      <trkpt lat="44.23299" lon="5.98864">
        <ele>1335.41</ele>
        <time>2013-06-09T08:25:04Z</time>
      </trkpt>
      <trkpt lat="44.23301" lon="5.98854">
        <ele>1334.93</ele>
        <time>2013-06-09T08:25:18Z</time>
      </trkpt>
      <trkpt lat="44.23301" lon="5.98853">
        <ele>1337.81</ele>
        <time>2013-06-09T08:25:19Z</time>
      </trkpt>
      <trkpt lat="44.23302" lon="5.98846">
        <ele>1337.81</ele>
        <time>2013-06-09T08:25:30Z</time>
      </trkpt>
      <trkpt lat="44.233" lon="5.98837">
        <ele>1341.18</ele>
        <time>2013-06-09T08:25:40Z</time>
      </trkpt>
      <trkpt lat="44.233" lon="5.98836">
        <ele>1336.85</ele>
        <time>2013-06-09T08:25:41Z</time>
      </trkpt>
      <trkpt lat="44.233" lon="5.98835">
        <ele>1343.1</ele>
        <time>2013-06-09T08:25:42Z</time>
      </trkpt>
      <trkpt lat="44.233" lon="5.98825">
        <ele>1339.73</ele>
        <time>2013-06-09T08:25:51Z</time>
      </trkpt>
      <trkpt lat="44.233" lon="5.98825">
        <ele>1341.18</ele>
        <time>2013-06-09T08:26:09Z</time>
      </trkpt>
      <trkpt lat="44.233" lon="5.98823">
        <ele>1342.14</ele>
        <time>2013-06-09T08:26:35Z</time>
      </trkpt>
      <trkpt lat="44.23303" lon="5.98825">
        <ele>1342.14</ele>
        <time>2013-06-09T08:26:48Z</time>
      </trkpt>
      <trkpt lat="44.23303" lon="5.9882">
        <ele>1342.14</ele>
        <time>2013-06-09T08:27:09Z</time>
      </trkpt>
      <trkpt lat="44.23303" lon="5.98815">
        <ele>1343.1</ele>
        <time>2013-06-09T08:27:21Z</time>
      </trkpt>
      <trkpt lat="44.23304" lon="5.98811">
        <ele>1345.02</ele>
        <time>2013-06-09T08:27:38Z</time>
      </trkpt>
      <trkpt lat="44.23301" lon="5.98808">
        <ele>1344.06</ele>
        <time>2013-06-09T08:27:50Z</time>
      </trkpt>
      <trkpt lat="44.233" lon="5.98807">
        <ele>1345.98</ele>
        <time>2013-06-09T08:28:07Z</time>
      </trkpt>
      <trkpt lat="44.23299" lon="5.98801">
        <ele>1345.5</ele>
        <time>2013-06-09T08:28:21Z</time>
      </trkpt>
      <trkpt lat="44.23295" lon="5.98796">
        <ele>1345.98</ele>
        <time>2013-06-09T08:28:36Z</time>
      </trkpt>
      <trkpt lat="44.23295" lon="5.98786">
        <ele>1347.91</ele>
        <time>2013-06-09T08:28:48Z</time>
      </trkpt>
      <trkpt lat="44.23294" lon="5.98779">
        <ele>1346.94</ele>
        <time>2013-06-09T08:28:56Z</time>
      </trkpt>
      <trkpt lat="44.23292" lon="5.9876">
        <ele>1347.91</ele>
        <time>2013-06-09T08:29:10Z</time>
      </trkpt>
      <trkpt lat="44.23291" lon="5.98744">
        <ele>1347.91</ele>
        <time>2013-06-09T08:29:24Z</time>
      </trkpt>
      <trkpt lat="44.23291" lon="5.98741">
        <ele>1345.02</ele>
        <time>2013-06-09T08:29:26Z</time>
      </trkpt>
      <trkpt lat="44.2329" lon="5.98729">
        <ele>1348.87</ele>
        <time>2013-06-09T08:29:39Z</time>
      </trkpt>
      <trkpt lat="44.23292" lon="5.98717">
        <ele>1347.91</ele>
        <time>2013-06-09T08:29:51Z</time>
      </trkpt>
      <trkpt lat="44.23292" lon="5.98713">
        <ele>1347.43</ele>
        <time>2013-06-09T08:29:55Z</time>
      </trkpt>
      <trkpt lat="44.23291" lon="5.98694">
        <ele>1346.46</ele>
        <time>2013-06-09T08:30:08Z</time>
      </trkpt>
      <trkpt lat="44.2329" lon="5.98691">
        <ele>1347.91</ele>
        <time>2013-06-09T08:30:10Z</time>
      </trkpt>
      <trkpt lat="44.23286" lon="5.98676">
        <ele>1348.39</ele>
        <time>2013-06-09T08:30:23Z</time>
      </trkpt>
      <trkpt lat="44.23285" lon="5.98667">
        <ele>1347.91</ele>
        <time>2013-06-09T08:30:30Z</time>
      </trkpt>
      <trkpt lat="44.23285" lon="5.9866">
        <ele>1349.35</ele>
        <time>2013-06-09T08:30:35Z</time>
      </trkpt>
      <trkpt lat="44.23285" lon="5.98644">
        <ele>1347.91</ele>
        <time>2013-06-09T08:30:48Z</time>
      </trkpt>
      <trkpt lat="44.23282" lon="5.9863">
        <ele>1349.83</ele>
        <time>2013-06-09T08:31:02Z</time>
      </trkpt>
      <trkpt lat="44.23282" lon="5.98621">
        <ele>1352.23</ele>
        <time>2013-06-09T08:31:15Z</time>
      </trkpt>
      <trkpt lat="44.23282" lon="5.98621">
        <ele>1348.87</ele>
        <time>2013-06-09T08:31:16Z</time>
      </trkpt>
      <trkpt lat="44.23282" lon="5.9862">
        <ele>1352.71</ele>
        <time>2013-06-09T08:31:17Z</time>
      </trkpt>
      <trkpt lat="44.23284" lon="5.98621">
        <ele>1352.23</ele>
        <time>2013-06-09T08:31:32Z</time>
      </trkpt>
      <trkpt lat="44.23283" lon="5.98618">
        <ele>1352.71</ele>
        <time>2013-06-09T08:31:44Z</time>
      </trkpt>
      <trkpt lat="44.23284" lon="5.98616">
        <ele>1352.71</ele>
        <time>2013-06-09T08:32:03Z</time>
      </trkpt>
      <trkpt lat="44.23282" lon="5.9861">
        <ele>1352.71</ele>
        <time>2013-06-09T08:32:20Z</time>
      </trkpt>
      <trkpt lat="44.23284" lon="5.9861">
        <ele>1352.71</ele>
        <time>2013-06-09T08:32:40Z</time>
      </trkpt>
      <trkpt lat="44.23285" lon="5.9861">
        <ele>1353.19</ele>
        <time>2013-06-09T08:32:56Z</time>
      </trkpt>
      <trkpt lat="44.23282" lon="5.98609">
        <ele>1352.23</ele>
        <time>2013-06-09T08:33:12Z</time>
      </trkpt>
      <trkpt lat="44.23281" lon="5.98608">
        <ele>1351.75</ele>
        <time>2013-06-09T08:33:29Z</time>
      </trkpt>
      <trkpt lat="44.23281" lon="5.98609">
        <ele>1352.23</ele>
        <time>2013-06-09T08:33:55Z</time>
      </trkpt>
      <trkpt lat="44.2328" lon="5.98609">
        <ele>1352.23</ele>
        <time>2013-06-09T08:34:14Z</time>
      </trkpt>
      <trkpt lat="44.23282" lon="5.98607">
        <ele>1353.19</ele>
        <time>2013-06-09T08:34:35Z</time>
      </trkpt>
      <trkpt lat="44.2328" lon="5.98607">
        <ele>1346.94</ele>
        <time>2013-06-09T08:34:42Z</time>
      </trkpt>
      <trkpt lat="44.23281" lon="5.98607">
        <ele>1353.67</ele>
        <time>2013-06-09T08:34:43Z</time>
      </trkpt>
      <trkpt lat="44.23281" lon="5.98607">
        <ele>1351.75</ele>
        <time>2013-06-09T08:34:46Z</time>
      </trkpt>
      <trkpt lat="44.23282" lon="5.98609">
        <ele>1352.23</ele>
        <time>2013-06-09T08:35:10Z</time>
      </trkpt>
      <trkpt lat="44.2328" lon="5.98606">
        <ele>1355.12</ele>
        <time>2013-06-09T08:35:26Z</time>
      </trkpt>
      <trkpt lat="44.2328" lon="5.98606">
        <ele>1352.71</ele>
        <time>2013-06-09T08:35:27Z</time>
      </trkpt>
      <trkpt lat="44.23279" lon="5.98606">
        <ele>1351.27</ele>
        <time>2013-06-09T08:35:42Z</time>
      </trkpt>
      <trkpt lat="44.23278" lon="5.98606">
        <ele>1351.27</ele>
        <time>2013-06-09T08:36:12Z</time>
      </trkpt>
      <trkpt lat="44.23278" lon="5.98611">
        <ele>1350.79</ele>
        <time>2013-06-09T08:36:30Z</time>
      </trkpt>
      <trkpt lat="44.23282" lon="5.98609">
        <ele>1352.71</ele>
        <time>2013-06-09T08:36:48Z</time>
      </trkpt>
      <trkpt lat="44.23282" lon="5.98609">
        <ele>1352.23</ele>
        <time>2013-06-09T08:37:16Z</time>
      </trkpt>
      <trkpt lat="44.23282" lon="5.98606">
        <ele>1352.23</ele>
        <time>2013-06-09T08:37:39Z</time>
      </trkpt>
      <trkpt lat="44.23279" lon="5.98606">
        <ele>1352.23</ele>
        <time>2013-06-09T08:38:00Z</time>
      </trkpt>
      <trkpt lat="44.23281" lon="5.98608">
        <ele>1352.23</ele>
        <time>2013-06-09T08:38:20Z</time>
      </trkpt>
      <trkpt lat="44.23281" lon="5.98608">
        <ele>1351.75</ele>
        <time>2013-06-09T08:38:38Z</time>
      </trkpt>
      <trkpt lat="44.23281" lon="5.98609">
        <ele>1352.23</ele>
        <time>2013-06-09T08:39:03Z</time>
      </trkpt>
      <trkpt lat="44.23281" lon="5.98607">
        <ele>1352.23</ele>
        <time>2013-06-09T08:39:30Z</time>
      </trkpt>
      <trkpt lat="44.23279" lon="5.98607">
        <ele>1352.71</ele>
        <time>2013-06-09T08:39:50Z</time>
      </trkpt>
      <trkpt lat="44.23282" lon="5.9861">
        <ele>1352.71</ele>
        <time>2013-06-09T08:40:12Z</time>
      </trkpt>
      <trkpt lat="44.23282" lon="5.9861">
        <ele>1352.71</ele>
        <time>2013-06-09T08:40:36Z</time>
      </trkpt>
      <trkpt lat="44.23281" lon="5.9861">
        <ele>1352.23</ele>
        <time>2013-06-09T08:41:02Z</time>
      </trkpt>
      <trkpt lat="44.23282" lon="5.9861">
        <ele>1352.71</ele>
        <time>2013-06-09T08:41:28Z</time>
      </trkpt>
      <trkpt lat="44.23281" lon="5.98611">
        <ele>1353.19</ele>
        <time>2013-06-09T08:41:47Z</time>
      </trkpt>
      <trkpt lat="44.23281" lon="5.98611">
        <ele>1353.19</ele>
        <time>2013-06-09T08:41:48Z</time>
      </trkpt>
      <trkpt lat="44.23284" lon="5.98619">
        <ele>1354.63</ele>
        <time>2013-06-09T08:42:04Z</time>
      </trkpt>
      <trkpt lat="44.23285" lon="5.9862">
        <ele>1353.67</ele>
        <time>2013-06-09T08:42:05Z</time>
      </trkpt>
      <trkpt lat="44.23286" lon="5.98625">
        <ele>1354.15</ele>
        <time>2013-06-09T08:42:19Z</time>
      </trkpt>
      <trkpt lat="44.23289" lon="5.98629">
        <ele>1356.08</ele>
        <time>2013-06-09T08:42:29Z</time>
      </trkpt>
      <trkpt lat="44.2329" lon="5.9863">
        <ele>1354.63</ele>
        <time>2013-06-09T08:42:34Z</time>
      </trkpt>
      <trkpt lat="44.23298" lon="5.98645">
        <ele>1355.6</ele>
        <time>2013-06-09T08:42:48Z</time>
      </trkpt>
      <trkpt lat="44.233" lon="5.98648">
        <ele>1356.08</ele>
        <time>2013-06-09T08:42:50Z</time>
      </trkpt>
      <trkpt lat="44.23306" lon="5.98664">
        <ele>1356.56</ele>
        <time>2013-06-09T08:43:01Z</time>
      </trkpt>
      <trkpt lat="44.23308" lon="5.98678">
        <ele>1355.6</ele>
        <time>2013-06-09T08:43:15Z</time>
      </trkpt>
      <trkpt lat="44.23312" lon="5.98693">
        <ele>1355.6</ele>
        <time>2013-06-09T08:43:30Z</time>
      </trkpt>
      <trkpt lat="44.23317" lon="5.98704">
        <ele>1359.44</ele>
        <time>2013-06-09T08:43:41Z</time>
      </trkpt>
      <trkpt lat="44.23318" lon="5.98704">
        <ele>1358</ele>
        <time>2013-06-09T08:43:42Z</time>
      </trkpt>
      <trkpt lat="44.23325" lon="5.98711">
        <ele>1360.4</ele>
        <time>2013-06-09T08:43:54Z</time>
      </trkpt>
      <trkpt lat="44.2333" lon="5.98722">
        <ele>1360.88</ele>
        <time>2013-06-09T08:44:06Z</time>
      </trkpt>
      <trkpt lat="44.23332" lon="5.98734">
        <ele>1359.92</ele>
        <time>2013-06-09T08:44:19Z</time>
      </trkpt>
      <trkpt lat="44.23335" lon="5.98742">
        <ele>1359.92</ele>
        <time>2013-06-09T08:44:33Z</time>
      </trkpt>
      <trkpt lat="44.23335" lon="5.98746">
        <ele>1358.48</ele>
        <time>2013-06-09T08:44:49Z</time>
      </trkpt>
      <trkpt lat="44.23337" lon="5.9876">
        <ele>1357.52</ele>
        <time>2013-06-09T08:45:02Z</time>
      </trkpt>
      <trkpt lat="44.2334" lon="5.98774">
        <ele>1356.08</ele>
        <time>2013-06-09T08:45:16Z</time>
      </trkpt>
      <trkpt lat="44.23342" lon="5.98777">
        <ele>1357.04</ele>
        <time>2013-06-09T08:45:30Z</time>
      </trkpt>
      <trkpt lat="44.23347" lon="5.9878">
        <ele>1354.63</ele>
        <time>2013-06-09T08:45:41Z</time>
      </trkpt>
      <trkpt lat="44.23351" lon="5.98781">
        <ele>1357.04</ele>
        <time>2013-06-09T08:45:47Z</time>
      </trkpt>
      <trkpt lat="44.23352" lon="5.98782">
        <ele>1357.04</ele>
        <time>2013-06-09T08:45:48Z</time>
      </trkpt>
      <trkpt lat="44.23353" lon="5.98783">
        <ele>1355.6</ele>
        <time>2013-06-09T08:45:50Z</time>
      </trkpt>
      <trkpt lat="44.2336" lon="5.98794">
        <ele>1355.12</ele>
        <time>2013-06-09T08:46:02Z</time>
      </trkpt>
      <trkpt lat="44.23364" lon="5.98797">
        <ele>1354.15</ele>
        <time>2013-06-09T08:46:06Z</time>
      </trkpt>
      <trkpt lat="44.23366" lon="5.98799">
        <ele>1353.19</ele>
        <time>2013-06-09T08:46:10Z</time>
      </trkpt>
      <trkpt lat="44.23377" lon="5.98802">
        <ele>1354.63</ele>
        <time>2013-06-09T08:46:23Z</time>
      </trkpt>
      <trkpt lat="44.23382" lon="5.988">
        <ele>1354.15</ele>
        <time>2013-06-09T08:46:37Z</time>
      </trkpt>
      <trkpt lat="44.23391" lon="5.98803">
        <ele>1352.71</ele>
        <time>2013-06-09T08:46:50Z</time>
      </trkpt>
      <trkpt lat="44.23393" lon="5.98811">
        <ele>1349.35</ele>
        <time>2013-06-09T08:47:00Z</time>
      </trkpt>
      <trkpt lat="44.23397" lon="5.98819">
        <ele>1345.98</ele>
        <time>2013-06-09T08:47:12Z</time>
      </trkpt>
      <trkpt lat="44.234" lon="5.98819">
        <ele>1346.94</ele>
        <time>2013-06-09T08:47:20Z</time>
      </trkpt>
      <trkpt lat="44.23407" lon="5.98817">
        <ele>1346.94</ele>
        <time>2013-06-09T08:47:31Z</time>
      </trkpt>
      <trkpt lat="44.23411" lon="5.98822">
        <ele>1344.06</ele>
        <time>2013-06-09T08:47:43Z</time>
      </trkpt>
      <trkpt lat="44.23413" lon="5.98823">
        <ele>1342.62</ele>
        <time>2013-06-09T08:47:48Z</time>
      </trkpt>
      <trkpt lat="44.23414" lon="5.9883">
        <ele>1340.7</ele>
        <time>2013-06-09T08:48:01Z</time>
      </trkpt>
      <trkpt lat="44.23414" lon="5.98831">
        <ele>1342.14</ele>
        <time>2013-06-09T08:48:06Z</time>
      </trkpt>
      <trkpt lat="44.23416" lon="5.98832">
        <ele>1337.81</ele>
        <time>2013-06-09T08:48:10Z</time>
      </trkpt>
      <trkpt lat="44.23424" lon="5.9883">
        <ele>1339.73</ele>
        <time>2013-06-09T08:48:24Z</time>
      </trkpt>
      <trkpt lat="44.23426" lon="5.9883">
        <ele>1339.73</ele>
        <time>2013-06-09T08:48:27Z</time>
      </trkpt>
      <trkpt lat="44.23428" lon="5.98826">
        <ele>1339.25</ele>
        <time>2013-06-09T08:48:38Z</time>
      </trkpt>
      <trkpt lat="44.2343" lon="5.98834">
        <ele>1337.81</ele>
        <time>2013-06-09T08:48:49Z</time>
      </trkpt>
      <trkpt lat="44.23434" lon="5.98844">
        <ele>1335.89</ele>
        <time>2013-06-09T08:49:01Z</time>
      </trkpt>
      <trkpt lat="44.23437" lon="5.98854">
        <ele>1333.49</ele>
        <time>2013-06-09T08:49:13Z</time>
      </trkpt>
      <trkpt lat="44.23441" lon="5.98867">
        <ele>1331.08</ele>
        <time>2013-06-09T08:49:25Z</time>
      </trkpt>
      <trkpt lat="44.23447" lon="5.98882">
        <ele>1329.16</ele>
        <time>2013-06-09T08:49:39Z</time>
      </trkpt>
      <trkpt lat="44.23449" lon="5.98883">
        <ele>1330.12</ele>
        <time>2013-06-09T08:49:41Z</time>
      </trkpt>
      <trkpt lat="44.23458" lon="5.98898">
        <ele>1329.64</ele>
        <time>2013-06-09T08:49:53Z</time>
      </trkpt>
      <trkpt lat="44.23458" lon="5.989">
        <ele>1329.16</ele>
        <time>2013-06-09T08:49:54Z</time>
      </trkpt>
      <trkpt lat="44.23458" lon="5.98904">
        <ele>1329.64</ele>
        <time>2013-06-09T08:49:57Z</time>
      </trkpt>
      <trkpt lat="44.2345" lon="5.98906">
        <ele>1327.24</ele>
        <time>2013-06-09T08:50:09Z</time>
      </trkpt>
      <trkpt lat="44.23451" lon="5.98905">
        <ele>1326.28</ele>
        <time>2013-06-09T08:50:24Z</time>
      </trkpt>
      <trkpt lat="44.23452" lon="5.98901">
        <ele>1326.28</ele>
        <time>2013-06-09T08:50:49Z</time>
      </trkpt>
      <trkpt lat="44.23451" lon="5.98904">
        <ele>1326.28</ele>
        <time>2013-06-09T08:51:14Z</time>
      </trkpt>
      <trkpt lat="44.23452" lon="5.98906">
        <ele>1327.24</ele>
        <time>2013-06-09T08:51:37Z</time>
      </trkpt>
      <trkpt lat="44.23448" lon="5.98904">
        <ele>1326.76</ele>
        <time>2013-06-09T08:52:02Z</time>
      </trkpt>
      <trkpt lat="44.23448" lon="5.98909">
        <ele>1327.72</ele>
        <time>2013-06-09T08:52:26Z</time>
      </trkpt>
      <trkpt lat="44.23447" lon="5.98908">
        <ele>1327.24</ele>
        <time>2013-06-09T08:52:48Z</time>
      </trkpt>
      <trkpt lat="44.23448" lon="5.98908">
        <ele>1327.72</ele>
        <time>2013-06-09T08:53:08Z</time>
      </trkpt>
      <trkpt lat="44.2345" lon="5.98907">
        <ele>1327.72</ele>
        <time>2013-06-09T08:53:22Z</time>
      </trkpt>
      <trkpt lat="44.2345" lon="5.98906">
        <ele>1327.72</ele>
        <time>2013-06-09T08:53:46Z</time>
      </trkpt>
      <trkpt lat="44.23451" lon="5.98911">
        <ele>1328.2</ele>
        <time>2013-06-09T08:54:02Z</time>
      </trkpt>
      <trkpt lat="44.23454" lon="5.98916">
        <ele>1327.24</ele>
        <time>2013-06-09T08:54:07Z</time>
      </trkpt>
      <trkpt lat="44.23458" lon="5.98931">
        <ele>1329.16</ele>
        <time>2013-06-09T08:54:19Z</time>
      </trkpt>
      <trkpt lat="44.2346" lon="5.98937">
        <ele>1329.64</ele>
        <time>2013-06-09T08:54:30Z</time>
      </trkpt>
      <trkpt lat="44.2346" lon="5.98942">
        <ele>1329.64</ele>
        <time>2013-06-09T08:54:38Z</time>
      </trkpt>
      <trkpt lat="44.2346" lon="5.98942">
        <ele>1334.45</ele>
        <time>2013-06-09T08:54:39Z</time>
      </trkpt>
      <trkpt lat="44.23461" lon="5.98944">
        <ele>1331.56</ele>
        <time>2013-06-09T08:54:40Z</time>
      </trkpt>
      <trkpt lat="44.23462" lon="5.9895">
        <ele>1331.08</ele>
        <time>2013-06-09T08:54:45Z</time>
      </trkpt>
      <trkpt lat="44.2346" lon="5.98967">
        <ele>1331.08</ele>
        <time>2013-06-09T08:54:59Z</time>
      </trkpt>
      <trkpt lat="44.23459" lon="5.98975">
        <ele>1327.24</ele>
        <time>2013-06-09T08:55:08Z</time>
      </trkpt>
      <trkpt lat="44.2346" lon="5.98976">
        <ele>1329.16</ele>
        <time>2013-06-09T08:55:10Z</time>
      </trkpt>
      <trkpt lat="44.23466" lon="5.98981">
        <ele>1332.52</ele>
        <time>2013-06-09T08:55:21Z</time>
      </trkpt>
      <trkpt lat="44.23474" lon="5.98991">
        <ele>1332.52</ele>
        <time>2013-06-09T08:55:33Z</time>
      </trkpt>
      <trkpt lat="44.23482" lon="5.99">
        <ele>1334.93</ele>
        <time>2013-06-09T08:55:45Z</time>
      </trkpt>
      <trkpt lat="44.23491" lon="5.99009">
        <ele>1335.89</ele>
        <time>2013-06-09T08:55:55Z</time>
      </trkpt>
      <trkpt lat="44.23497" lon="5.99017">
        <ele>1333.97</ele>
        <time>2013-06-09T08:56:02Z</time>
      </trkpt>
      <trkpt lat="44.23501" lon="5.99023">
        <ele>1335.89</ele>
        <time>2013-06-09T08:56:09Z</time>
      </trkpt>
      <trkpt lat="44.23513" lon="5.99036">
        <ele>1335.89</ele>
        <time>2013-06-09T08:56:23Z</time>
      </trkpt>
      <trkpt lat="44.2352" lon="5.99042">
        <ele>1336.37</ele>
        <time>2013-06-09T08:56:33Z</time>
      </trkpt>
      <trkpt lat="44.23524" lon="5.9905">
        <ele>1335.41</ele>
        <time>2013-06-09T08:56:46Z</time>
      </trkpt>
      <trkpt lat="44.23524" lon="5.99051">
        <ele>1336.85</ele>
        <time>2013-06-09T08:56:47Z</time>
      </trkpt>
      <trkpt lat="44.2353" lon="5.99067">
        <ele>1335.41</ele>
        <time>2013-06-09T08:57:00Z</time>
      </trkpt>
      <trkpt lat="44.23537" lon="5.99084">
        <ele>1334.45</ele>
        <time>2013-06-09T08:57:13Z</time>
      </trkpt>
      <trkpt lat="44.2354" lon="5.99093">
        <ele>1333.01</ele>
        <time>2013-06-09T08:57:25Z</time>
      </trkpt>
      <trkpt lat="44.23543" lon="5.991">
        <ele>1332.52</ele>
        <time>2013-06-09T08:57:37Z</time>
      </trkpt>
      <trkpt lat="44.23547" lon="5.99106">
        <ele>1332.52</ele>
        <time>2013-06-09T08:57:43Z</time>
      </trkpt>
      <trkpt lat="44.23554" lon="5.9912">
        <ele>1331.56</ele>
        <time>2013-06-09T08:57:55Z</time>
      </trkpt>
      <trkpt lat="44.23562" lon="5.99136">
        <ele>1331.08</ele>
        <time>2013-06-09T08:58:07Z</time>
      </trkpt>
      <trkpt lat="44.23569" lon="5.9915">
        <ele>1329.16</ele>
        <time>2013-06-09T08:58:18Z</time>
      </trkpt>
      <trkpt lat="44.23575" lon="5.9916">
        <ele>1329.64</ele>
        <time>2013-06-09T08:58:28Z</time>
      </trkpt>
      <trkpt lat="44.23584" lon="5.99174">
        <ele>1329.64</ele>
        <time>2013-06-09T08:58:42Z</time>
      </trkpt>
      <trkpt lat="44.23592" lon="5.99186">
        <ele>1329.16</ele>
        <time>2013-06-09T08:58:52Z</time>
      </trkpt>
      <trkpt lat="44.23601" lon="5.99198">
        <ele>1330.12</ele>
        <time>2013-06-09T08:59:03Z</time>
      </trkpt>
      <trkpt lat="44.23606" lon="5.99201">
        <ele>1330.12</ele>
        <time>2013-06-09T08:59:09Z</time>
      </trkpt>
      <trkpt lat="44.23615" lon="5.99217">
        <ele>1331.08</ele>
        <time>2013-06-09T08:59:23Z</time>
      </trkpt>
      <trkpt lat="44.23617" lon="5.99223">
        <ele>1331.56</ele>
        <time>2013-06-09T08:59:28Z</time>
      </trkpt>
      <trkpt lat="44.23622" lon="5.99239">
        <ele>1331.56</ele>
        <time>2013-06-09T08:59:41Z</time>
      </trkpt>
      <trkpt lat="44.23627" lon="5.99246">
        <ele>1331.56</ele>
        <time>2013-06-09T08:59:48Z</time>
      </trkpt>
      <trkpt lat="44.23628" lon="5.99249">
        <ele>1333.01</ele>
        <time>2013-06-09T08:59:50Z</time>
      </trkpt>
      <trkpt lat="44.23641" lon="5.99262">
        <ele>1332.52</ele>
        <time>2013-06-09T09:00:04Z</time>
      </trkpt>
      <trkpt lat="44.23652" lon="5.99274">
        <ele>1333.97</ele>
        <time>2013-06-09T09:00:16Z</time>
      </trkpt>
      <trkpt lat="44.23662" lon="5.99287">
        <ele>1334.45</ele>
        <time>2013-06-09T09:00:29Z</time>
      </trkpt>
      <trkpt lat="44.23673" lon="5.99306">
        <ele>1334.45</ele>
        <time>2013-06-09T09:00:46Z</time>
      </trkpt>
      <trkpt lat="44.2368" lon="5.99317">
        <ele>1337.81</ele>
        <time>2013-06-09T09:00:55Z</time>
      </trkpt>
      <trkpt lat="44.23691" lon="5.99333">
        <ele>1337.33</ele>
        <time>2013-06-09T09:01:12Z</time>
      </trkpt>
      <trkpt lat="44.23701" lon="5.99355">
        <ele>1337.33</ele>
        <time>2013-06-09T09:01:30Z</time>
      </trkpt>
      <trkpt lat="44.23703" lon="5.99363">
        <ele>1338.77</ele>
        <time>2013-06-09T09:01:39Z</time>
      </trkpt>
      <trkpt lat="44.2371" lon="5.9938">
        <ele>1341.66</ele>
        <time>2013-06-09T09:01:50Z</time>
      </trkpt>
      <trkpt lat="44.23712" lon="5.99384">
        <ele>1340.22</ele>
        <time>2013-06-09T09:01:52Z</time>
      </trkpt>
      <trkpt lat="44.23716" lon="5.99384">
        <ele>1339.73</ele>
        <time>2013-06-09T09:02:05Z</time>
      </trkpt>
      <trkpt lat="44.23717" lon="5.99387">
        <ele>1340.7</ele>
        <time>2013-06-09T09:02:21Z</time>
      </trkpt>
      <trkpt lat="44.23733" lon="5.99405">
        <ele>1339.73</ele>
        <time>2013-06-09T09:02:40Z</time>
      </trkpt>
      <trkpt lat="44.23733" lon="5.99405">
        <ele>1339.25</ele>
        <time>2013-06-09T09:02:41Z</time>
      </trkpt>
      <trkpt lat="44.23727" lon="5.99409">
        <ele>1340.22</ele>
        <time>2013-06-09T09:02:57Z</time>
      </trkpt>
      <trkpt lat="44.23726" lon="5.99411">
        <ele>1340.22</ele>
        <time>2013-06-09T09:03:27Z</time>
      </trkpt>
      <trkpt lat="44.23729" lon="5.99409">
        <ele>1340.7</ele>
        <time>2013-06-09T09:03:43Z</time>
      </trkpt>
      <trkpt lat="44.23731" lon="5.9942">
        <ele>1339.25</ele>
        <time>2013-06-09T09:03:56Z</time>
      </trkpt>
      <trkpt lat="44.23741" lon="5.99438">
        <ele>1338.77</ele>
        <time>2013-06-09T09:04:12Z</time>
      </trkpt>
      <trkpt lat="44.23747" lon="5.99452">
        <ele>1339.25</ele>
        <time>2013-06-09T09:04:26Z</time>
      </trkpt>
      <trkpt lat="44.23747" lon="5.99464">
        <ele>1342.62</ele>
        <time>2013-06-09T09:04:40Z</time>
      </trkpt>
      <trkpt lat="44.23744" lon="5.99481">
        <ele>1341.66</ele>
        <time>2013-06-09T09:04:56Z</time>
      </trkpt>
      <trkpt lat="44.23748" lon="5.99497">
        <ele>1341.66</ele>
        <time>2013-06-09T09:05:08Z</time>
      </trkpt>
      <trkpt lat="44.23764" lon="5.99522">
        <ele>1340.22</ele>
        <time>2013-06-09T09:05:27Z</time>
      </trkpt>
      <trkpt lat="44.23769" lon="5.99528">
        <ele>1339.25</ele>
        <time>2013-06-09T09:05:33Z</time>
      </trkpt>
      <trkpt lat="44.23779" lon="5.99547">
        <ele>1336.85</ele>
        <time>2013-06-09T09:05:49Z</time>
      </trkpt>
      <trkpt lat="44.23783" lon="5.99558">
        <ele>1336.37</ele>
        <time>2013-06-09T09:06:01Z</time>
      </trkpt>
      <trkpt lat="44.23785" lon="5.99561">
        <ele>1336.37</ele>
        <time>2013-06-09T09:06:21Z</time>
      </trkpt>
      <trkpt lat="44.2379" lon="5.99573">
        <ele>1335.41</ele>
        <time>2013-06-09T09:06:35Z</time>
      </trkpt>
      <trkpt lat="44.23792" lon="5.99586">
        <ele>1332.04</ele>
        <time>2013-06-09T09:06:43Z</time>
      </trkpt>
      <trkpt lat="44.238" lon="5.99607">
        <ele>1329.64</ele>
        <time>2013-06-09T09:06:57Z</time>
      </trkpt>
      <trkpt lat="44.23805" lon="5.99624">
        <ele>1326.76</ele>
        <time>2013-06-09T09:07:08Z</time>
      </trkpt>
      <trkpt lat="44.23812" lon="5.9965">
        <ele>1325.31</ele>
        <time>2013-06-09T09:07:21Z</time>
      </trkpt>
      <trkpt lat="44.23817" lon="5.99666">
        <ele>1321.47</ele>
        <time>2013-06-09T09:07:32Z</time>
      </trkpt>
      <trkpt lat="44.23824" lon="5.9969">
        <ele>1320.03</ele>
        <time>2013-06-09T09:07:46Z</time>
      </trkpt>
      <trkpt lat="44.23825" lon="5.99713">
        <ele>1316.18</ele>
        <time>2013-06-09T09:07:56Z</time>
      </trkpt>
      <trkpt lat="44.23825" lon="5.99715">
        <ele>1316.66</ele>
        <time>2013-06-09T09:07:57Z</time>
      </trkpt>
      <trkpt lat="44.23822" lon="5.99717">
        <ele>1315.7</ele>
        <time>2013-06-09T09:08:10Z</time>
      </trkpt>
      <trkpt lat="44.23821" lon="5.99719">
        <ele>1315.22</ele>
        <time>2013-06-09T09:08:12Z</time>
      </trkpt>
      <trkpt lat="44.23821" lon="5.99727">
        <ele>1313.78</ele>
        <time>2013-06-09T09:08:19Z</time>
      </trkpt>
      <trkpt lat="44.23819" lon="5.99733">
        <ele>1311.86</ele>
        <time>2013-06-09T09:08:25Z</time>
      </trkpt>
      <trkpt lat="44.23818" lon="5.99737">
        <ele>1311.38</ele>
        <time>2013-06-09T09:08:29Z</time>
      </trkpt>
      <trkpt lat="44.23817" lon="5.9974">
        <ele>1310.41</ele>
        <time>2013-06-09T09:08:32Z</time>
      </trkpt>
      <trkpt lat="44.23818" lon="5.99748">
        <ele>1308.97</ele>
        <time>2013-06-09T09:08:38Z</time>
      </trkpt>
      <trkpt lat="44.23818" lon="5.99754">
        <ele>1308.49</ele>
        <time>2013-06-09T09:08:44Z</time>
      </trkpt>
      <trkpt lat="44.23818" lon="5.99757">
        <ele>1308.01</ele>
        <time>2013-06-09T09:08:46Z</time>
      </trkpt>
      <trkpt lat="44.2382" lon="5.99766">
        <ele>1307.05</ele>
        <time>2013-06-09T09:08:53Z</time>
      </trkpt>
      <trkpt lat="44.23829" lon="5.99779">
        <ele>1308.49</ele>
        <time>2013-06-09T09:09:06Z</time>
      </trkpt>
      <trkpt lat="44.23831" lon="5.99785">
        <ele>1309.45</ele>
        <time>2013-06-09T09:09:11Z</time>
      </trkpt>
      <trkpt lat="44.23833" lon="5.99787">
        <ele>1307.53</ele>
        <time>2013-06-09T09:09:13Z</time>
      </trkpt>
      <trkpt lat="44.23834" lon="5.99797">
        <ele>1308.01</ele>
        <time>2013-06-09T09:09:24Z</time>
      </trkpt>
      <trkpt lat="44.23834" lon="5.99812">
        <ele>1305.61</ele>
        <time>2013-06-09T09:09:35Z</time>
      </trkpt>
      <trkpt lat="44.2383" lon="5.99827">
        <ele>1300.8</ele>
        <time>2013-06-09T09:09:45Z</time>
      </trkpt>
      <trkpt lat="44.23829" lon="5.99829">
        <ele>1302.72</ele>
        <time>2013-06-09T09:09:46Z</time>
      </trkpt>
      <trkpt lat="44.23827" lon="5.9984">
        <ele>1299.36</ele>
        <time>2013-06-09T09:09:52Z</time>
      </trkpt>
      <trkpt lat="44.23826" lon="5.99846">
        <ele>1298.4</ele>
        <time>2013-06-09T09:09:56Z</time>
      </trkpt>
      <trkpt lat="44.23822" lon="5.99859">
        <ele>1295.51</ele>
        <time>2013-06-09T09:10:04Z</time>
      </trkpt>
      <trkpt lat="44.23818" lon="5.99873">
        <ele>1293.11</ele>
        <time>2013-06-09T09:10:15Z</time>
      </trkpt>
      <trkpt lat="44.23816" lon="5.99889">
        <ele>1290.23</ele>
        <time>2013-06-09T09:10:26Z</time>
      </trkpt>
      <trkpt lat="44.23816" lon="5.99892">
        <ele>1288.78</ele>
        <time>2013-06-09T09:10:29Z</time>
      </trkpt>
      <trkpt lat="44.23816" lon="5.99893">
        <ele>1290.23</ele>
        <time>2013-06-09T09:10:44Z</time>
      </trkpt>
      <trkpt lat="44.23813" lon="5.99897">
        <ele>1289.75</ele>
        <time>2013-06-09T09:10:56Z</time>
      </trkpt>
      <trkpt lat="44.2381" lon="5.99899">
        <ele>1287.34</ele>
        <time>2013-06-09T09:11:12Z</time>
      </trkpt>
      <trkpt lat="44.23804" lon="5.99899">
        <ele>1285.9</ele>
        <time>2013-06-09T09:11:25Z</time>
      </trkpt>
      <trkpt lat="44.23798" lon="5.99899">
        <ele>1283.02</ele>
        <time>2013-06-09T09:11:36Z</time>
      </trkpt>
      <trkpt lat="44.23793" lon="5.99906">
        <ele>1280.61</ele>
        <time>2013-06-09T09:11:48Z</time>
      </trkpt>
      <trkpt lat="44.2379" lon="5.99913">
        <ele>1277.25</ele>
        <time>2013-06-09T09:12:01Z</time>
      </trkpt>
      <trkpt lat="44.23789" lon="5.99913">
        <ele>1277.25</ele>
        <time>2013-06-09T09:12:02Z</time>
      </trkpt>
      <trkpt lat="44.23788" lon="5.99917">
        <ele>1277.73</ele>
        <time>2013-06-09T09:12:28Z</time>
      </trkpt>
      <trkpt lat="44.2378" lon="5.99921">
        <ele>1274.85</ele>
        <time>2013-06-09T09:12:44Z</time>
      </trkpt>
      <trkpt lat="44.23774" lon="5.99927">
        <ele>1271.48</ele>
        <time>2013-06-09T09:12:56Z</time>
      </trkpt>
      <trkpt lat="44.2377" lon="5.99928">
        <ele>1270.04</ele>
        <time>2013-06-09T09:13:01Z</time>
      </trkpt>
      <trkpt lat="44.23764" lon="5.99926">
        <ele>1268.12</ele>
        <time>2013-06-09T09:13:06Z</time>
      </trkpt>
      <trkpt lat="44.23756" lon="5.9993">
        <ele>1265.23</ele>
        <time>2013-06-09T09:13:15Z</time>
      </trkpt>
      <trkpt lat="44.23754" lon="5.99935">
        <ele>1263.79</ele>
        <time>2013-06-09T09:13:20Z</time>
      </trkpt>
      <trkpt lat="44.23752" lon="5.99938">
        <ele>1263.31</ele>
        <time>2013-06-09T09:13:22Z</time>
      </trkpt>
      <trkpt lat="44.23746" lon="5.99946">
        <ele>1259.94</ele>
        <time>2013-06-09T09:13:35Z</time>
      </trkpt>
      <trkpt lat="44.2374" lon="5.99949">
        <ele>1258.98</ele>
        <time>2013-06-09T09:13:44Z</time>
      </trkpt>
      <trkpt lat="44.23733" lon="5.99957">
        <ele>1256.1</ele>
        <time>2013-06-09T09:13:56Z</time>
      </trkpt>
      <trkpt lat="44.23725" lon="5.99957">
        <ele>1253.22</ele>
        <time>2013-06-09T09:14:09Z</time>
      </trkpt>
      <trkpt lat="44.2372" lon="5.99969">
        <ele>1251.29</ele>
        <time>2013-06-09T09:14:19Z</time>
      </trkpt>
      <trkpt lat="44.23715" lon="5.99972">
        <ele>1248.89</ele>
        <time>2013-06-09T09:14:27Z</time>
      </trkpt>
      <trkpt lat="44.23709" lon="5.99978">
        <ele>1249.37</ele>
        <time>2013-06-09T09:14:48Z</time>
      </trkpt>
      <trkpt lat="44.23709" lon="5.99979">
        <ele>1248.41</ele>
        <time>2013-06-09T09:15:04Z</time>
      </trkpt>
      <trkpt lat="44.23709" lon="5.99979">
        <ele>1247.93</ele>
        <time>2013-06-09T09:15:33Z</time>
      </trkpt>
      <trkpt lat="44.2371" lon="5.99979">
        <ele>1247.93</ele>
        <time>2013-06-09T09:15:58Z</time>
      </trkpt>
      <trkpt lat="44.23708" lon="5.99979">
        <ele>1247.93</ele>
        <time>2013-06-09T09:16:16Z</time>
      </trkpt>
      <trkpt lat="44.23707" lon="5.99979">
        <ele>1246.49</ele>
        <time>2013-06-09T09:16:37Z</time>
      </trkpt>
      <trkpt lat="44.23705" lon="5.99985">
        <ele>1245.53</ele>
        <time>2013-06-09T09:16:42Z</time>
      </trkpt>
      <trkpt lat="44.23692" lon="5.99987">
        <ele>1243.12</ele>
        <time>2013-06-09T09:16:54Z</time>
      </trkpt>
      <trkpt lat="44.23681" lon="5.99982">
        <ele>1240.24</ele>
        <time>2013-06-09T09:17:05Z</time>
      </trkpt>
      <trkpt lat="44.23663" lon="5.99974">
        <ele>1237.83</ele>
        <time>2013-06-09T09:17:19Z</time>
      </trkpt>
      <trkpt lat="44.23657" lon="5.99975">
        <ele>1235.43</ele>
        <time>2013-06-09T09:17:24Z</time>
      </trkpt>
      <trkpt lat="44.23656" lon="5.99975">
        <ele>1235.91</ele>
        <time>2013-06-09T09:17:25Z</time>
      </trkpt>
      <trkpt lat="44.23653" lon="5.99982">
        <ele>1233.51</ele>
        <time>2013-06-09T09:17:29Z</time>
      </trkpt>
      <trkpt lat="44.23656" lon="6.00003">
        <ele>1233.99</ele>
        <time>2013-06-09T09:17:42Z</time>
      </trkpt>
      <trkpt lat="44.23658" lon="6.00005">
        <ele>1234.95</ele>
        <time>2013-06-09T09:17:44Z</time>
      </trkpt>
      <trkpt lat="44.23661" lon="6.00009">
        <ele>1235.91</ele>
        <time>2013-06-09T09:17:49Z</time>
      </trkpt>
      <trkpt lat="44.23662" lon="6.00015">
        <ele>1233.99</ele>
        <time>2013-06-09T09:17:53Z</time>
      </trkpt>
      <trkpt lat="44.23666" lon="6.00037">
        <ele>1233.51</ele>
        <time>2013-06-09T09:18:06Z</time>
      </trkpt>
      <trkpt lat="44.23669" lon="6.00063">
        <ele>1232.55</ele>
        <time>2013-06-09T09:18:19Z</time>
      </trkpt>
      <trkpt lat="44.23671" lon="6.00084">
        <ele>1228.7</ele>
        <time>2013-06-09T09:18:29Z</time>
      </trkpt>
      <trkpt lat="44.23669" lon="6.00105">
        <ele>1228.22</ele>
        <time>2013-06-09T09:18:41Z</time>
      </trkpt>
      <trkpt lat="44.23664" lon="6.00119">
        <ele>1224.86</ele>
        <time>2013-06-09T09:18:54Z</time>
      </trkpt>
      <trkpt lat="44.23656" lon="6.00129">
        <ele>1221.97</ele>
        <time>2013-06-09T09:19:07Z</time>
      </trkpt>
      <trkpt lat="44.2365" lon="6.00137">
        <ele>1220.53</ele>
        <time>2013-06-09T09:19:17Z</time>
      </trkpt>
      <trkpt lat="44.23638" lon="6.00141">
        <ele>1217.65</ele>
        <time>2013-06-09T09:19:25Z</time>
      </trkpt>
      <trkpt lat="44.23633" lon="6.00141">
        <ele>1216.69</ele>
        <time>2013-06-09T09:19:29Z</time>
      </trkpt>
      <trkpt lat="44.23631" lon="6.00142">
        <ele>1216.69</ele>
        <time>2013-06-09T09:19:30Z</time>
      </trkpt>
      <trkpt lat="44.23626" lon="6.00145">
        <ele>1214.76</ele>
        <time>2013-06-09T09:19:35Z</time>
      </trkpt>
      <trkpt lat="44.23625" lon="6.00148">
        <ele>1215.24</ele>
        <time>2013-06-09T09:19:38Z</time>
      </trkpt>
      <trkpt lat="44.23621" lon="6.00172">
        <ele>1214.28</ele>
        <time>2013-06-09T09:19:52Z</time>
      </trkpt>
      <trkpt lat="44.23621" lon="6.00173">
        <ele>1214.28</ele>
        <time>2013-06-09T09:19:53Z</time>
      </trkpt>
      <trkpt lat="44.23622" lon="6.00191">
        <ele>1214.76</ele>
        <time>2013-06-09T09:20:04Z</time>
      </trkpt>
      <trkpt lat="44.23621" lon="6.002">
        <ele>1214.28</ele>
        <time>2013-06-09T09:20:14Z</time>
      </trkpt>
      <trkpt lat="44.2362" lon="6.00205">
        <ele>1213.8</ele>
        <time>2013-06-09T09:20:30Z</time>
      </trkpt>
      <trkpt lat="44.23613" lon="6.00214">
        <ele>1212.36</ele>
        <time>2013-06-09T09:20:42Z</time>
      </trkpt>
      <trkpt lat="44.23598" lon="6.00217">
        <ele>1209.96</ele>
        <time>2013-06-09T09:20:55Z</time>
      </trkpt>
      <trkpt lat="44.23582" lon="6.00226">
        <ele>1206.59</ele>
        <time>2013-06-09T09:21:11Z</time>
      </trkpt>
      <trkpt lat="44.23581" lon="6.00227">
        <ele>1207.07</ele>
        <time>2013-06-09T09:21:13Z</time>
      </trkpt>
      <trkpt lat="44.23572" lon="6.00238">
        <ele>1204.19</ele>
        <time>2013-06-09T09:21:23Z</time>
      </trkpt>
      <trkpt lat="44.23565" lon="6.00244">
        <ele>1202.75</ele>
        <time>2013-06-09T09:21:34Z</time>
      </trkpt>
      <trkpt lat="44.23562" lon="6.00246">
        <ele>1202.75</ele>
        <time>2013-06-09T09:21:53Z</time>
      </trkpt>
      <trkpt lat="44.23559" lon="6.00247">
        <ele>1202.27</ele>
        <time>2013-06-09T09:22:05Z</time>
      </trkpt>
      <trkpt lat="44.23559" lon="6.00246">
        <ele>1201.79</ele>
        <time>2013-06-09T09:22:22Z</time>
      </trkpt>
      <trkpt lat="44.23554" lon="6.00255">
        <ele>1200.34</ele>
        <time>2013-06-09T09:22:35Z</time>
      </trkpt>
      <trkpt lat="44.23551" lon="6.00259">
        <ele>1199.86</ele>
        <time>2013-06-09T09:22:39Z</time>
      </trkpt>
      <trkpt lat="44.23542" lon="6.00272">
        <ele>1196.02</ele>
        <time>2013-06-09T09:22:50Z</time>
      </trkpt>
      <trkpt lat="44.23541" lon="6.00273">
        <ele>1196.5</ele>
        <time>2013-06-09T09:22:51Z</time>
      </trkpt>
      <trkpt lat="44.23528" lon="6.00278">
        <ele>1194.09</ele>
        <time>2013-06-09T09:23:03Z</time>
      </trkpt>
      <trkpt lat="44.23521" lon="6.00285">
        <ele>1190.73</ele>
        <time>2013-06-09T09:23:13Z</time>
      </trkpt>
      <trkpt lat="44.23516" lon="6.00295">
        <ele>1188.81</ele>
        <time>2013-06-09T09:23:22Z</time>
      </trkpt>
      <trkpt lat="44.23507" lon="6.00306">
        <ele>1185.44</ele>
        <time>2013-06-09T09:23:33Z</time>
      </trkpt>
      <trkpt lat="44.23498" lon="6.0032">
        <ele>1182.08</ele>
        <time>2013-06-09T09:23:46Z</time>
      </trkpt>
      <trkpt lat="44.23493" lon="6.00327">
        <ele>1181.12</ele>
        <time>2013-06-09T09:23:55Z</time>
      </trkpt>
      <trkpt lat="44.23484" lon="6.00337">
        <ele>1177.75</ele>
        <time>2013-06-09T09:24:08Z</time>
      </trkpt>
      <trkpt lat="44.23476" lon="6.00346">
        <ele>1176.31</ele>
        <time>2013-06-09T09:24:17Z</time>
      </trkpt>
      <trkpt lat="44.23466" lon="6.0036">
        <ele>1174.39</ele>
        <time>2013-06-09T09:24:29Z</time>
      </trkpt>
      <trkpt lat="44.23457" lon="6.0038">
        <ele>1171.5</ele>
        <time>2013-06-09T09:24:43Z</time>
      </trkpt>
      <trkpt lat="44.23452" lon="6.00398">
        <ele>1168.62</ele>
        <time>2013-06-09T09:24:58Z</time>
      </trkpt>
      <trkpt lat="44.2344" lon="6.00409">
        <ele>1167.18</ele>
        <time>2013-06-09T09:25:11Z</time>
      </trkpt>
      <trkpt lat="44.23433" lon="6.00421">
        <ele>1164.29</ele>
        <time>2013-06-09T09:25:24Z</time>
      </trkpt>
      <trkpt lat="44.23421" lon="6.00436">
        <ele>1162.85</ele>
        <time>2013-06-09T09:25:38Z</time>
      </trkpt>
      <trkpt lat="44.23404" lon="6.00449">
        <ele>1159.97</ele>
        <time>2013-06-09T09:25:51Z</time>
      </trkpt>
      <trkpt lat="44.23389" lon="6.00449">
        <ele>1158.05</ele>
        <time>2013-06-09T09:26:04Z</time>
      </trkpt>
      <trkpt lat="44.23379" lon="6.00453">
        <ele>1156.6</ele>
        <time>2013-06-09T09:26:16Z</time>
      </trkpt>
      <trkpt lat="44.2337" lon="6.00456">
        <ele>1154.2</ele>
        <time>2013-06-09T09:26:31Z</time>
      </trkpt>
      <trkpt lat="44.23371" lon="6.00458">
        <ele>1154.2</ele>
        <time>2013-06-09T09:26:51Z</time>
      </trkpt>
      <trkpt lat="44.23372" lon="6.00461">
        <ele>1154.2</ele>
        <time>2013-06-09T09:27:16Z</time>
      </trkpt>
      <trkpt lat="44.23378" lon="6.00456">
        <ele>1154.2</ele>
        <time>2013-06-09T09:27:32Z</time>
      </trkpt>
      <trkpt lat="44.23373" lon="6.0046">
        <ele>1154.68</ele>
        <time>2013-06-09T09:27:56Z</time>
      </trkpt>
      <trkpt lat="44.2337" lon="6.0046">
        <ele>1154.2</ele>
        <time>2013-06-09T09:28:23Z</time>
      </trkpt>
      <trkpt lat="44.23365" lon="6.0046">
        <ele>1153.72</ele>
        <time>2013-06-09T09:28:51Z</time>
      </trkpt>
      <trkpt lat="44.23364" lon="6.00463">
        <ele>1154.2</ele>
        <time>2013-06-09T09:29:14Z</time>
      </trkpt>
      <trkpt lat="44.23366" lon="6.00456">
        <ele>1154.2</ele>
        <time>2013-06-09T09:29:39Z</time>
      </trkpt>
      <trkpt lat="44.23368" lon="6.00454">
        <ele>1154.2</ele>
        <time>2013-06-09T09:30:10Z</time>
      </trkpt>
      <trkpt lat="44.23369" lon="6.00453">
        <ele>1154.2</ele>
        <time>2013-06-09T09:30:37Z</time>
      </trkpt>
      <trkpt lat="44.23371" lon="6.00453">
        <ele>1154.68</ele>
        <time>2013-06-09T09:31:01Z</time>
      </trkpt>
      <trkpt lat="44.23379" lon="6.00458">
        <ele>1154.2</ele>
        <time>2013-06-09T09:31:23Z</time>
      </trkpt>
      <trkpt lat="44.23379" lon="6.00462">
        <ele>1154.2</ele>
        <time>2013-06-09T09:31:50Z</time>
      </trkpt>
      <trkpt lat="44.23376" lon="6.00461">
        <ele>1154.68</ele>
        <time>2013-06-09T09:32:11Z</time>
      </trkpt>
      <trkpt lat="44.23379" lon="6.0046">
        <ele>1154.68</ele>
        <time>2013-06-09T09:32:36Z</time>
      </trkpt>
      <trkpt lat="44.23379" lon="6.0046">
        <ele>1154.2</ele>
        <time>2013-06-09T09:32:54Z</time>
      </trkpt>
      <trkpt lat="44.23372" lon="6.0046">
        <ele>1154.68</ele>
        <time>2013-06-09T09:33:13Z</time>
      </trkpt>
      <trkpt lat="44.23374" lon="6.0046">
        <ele>1155.16</ele>
        <time>2013-06-09T09:33:40Z</time>
      </trkpt>
      <trkpt lat="44.23375" lon="6.00459">
        <ele>1155.16</ele>
        <time>2013-06-09T09:34:01Z</time>
      </trkpt>
      <trkpt lat="44.23378" lon="6.00457">
        <ele>1155.16</ele>
        <time>2013-06-09T09:34:27Z</time>
      </trkpt>
      <trkpt lat="44.23373" lon="6.00459">
        <ele>1155.16</ele>
        <time>2013-06-09T09:34:44Z</time>
      </trkpt>
      <trkpt lat="44.23373" lon="6.00457">
        <ele>1154.68</ele>
        <time>2013-06-09T09:35:04Z</time>
      </trkpt>
      <trkpt lat="44.23375" lon="6.0046">
        <ele>1154.68</ele>
        <time>2013-06-09T09:35:21Z</time>
      </trkpt>
      <trkpt lat="44.23374" lon="6.00473">
        <ele>1155.64</ele>
        <time>2013-06-09T09:35:31Z</time>
      </trkpt>
      <trkpt lat="44.23374" lon="6.00483">
        <ele>1153.24</ele>
        <time>2013-06-09T09:35:38Z</time>
      </trkpt>
      <trkpt lat="44.23373" lon="6.00504">
        <ele>1153.24</ele>
        <time>2013-06-09T09:35:53Z</time>
      </trkpt>
      <trkpt lat="44.23375" lon="6.00515">
        <ele>1152.76</ele>
        <time>2013-06-09T09:36:00Z</time>
      </trkpt>
      <trkpt lat="44.23375" lon="6.0052">
        <ele>1153.24</ele>
        <time>2013-06-09T09:36:03Z</time>
      </trkpt>
      <trkpt lat="44.23376" lon="6.00536">
        <ele>1152.76</ele>
        <time>2013-06-09T09:36:14Z</time>
      </trkpt>
      <trkpt lat="44.23378" lon="6.00537">
        <ele>1151.8</ele>
        <time>2013-06-09T09:36:16Z</time>
      </trkpt>
      <trkpt lat="44.23378" lon="6.00538">
        <ele>1152.76</ele>
        <time>2013-06-09T09:36:17Z</time>
      </trkpt>
      <trkpt lat="44.23381" lon="6.00539">
        <ele>1151.8</ele>
        <time>2013-06-09T09:36:20Z</time>
      </trkpt>
      <trkpt lat="44.23392" lon="6.00553">
        <ele>1150.35</ele>
        <time>2013-06-09T09:36:36Z</time>
      </trkpt>
      <trkpt lat="44.23388" lon="6.00545">
        <ele>1150.35</ele>
        <time>2013-06-09T09:36:55Z</time>
      </trkpt>
      <trkpt lat="44.23395" lon="6.00554">
        <ele>1149.39</ele>
        <time>2013-06-09T09:37:12Z</time>
      </trkpt>
      <trkpt lat="44.23396" lon="6.00556">
        <ele>1149.39</ele>
        <time>2013-06-09T09:37:13Z</time>
      </trkpt>
      <trkpt lat="44.23402" lon="6.0056">
        <ele>1150.35</ele>
        <time>2013-06-09T09:37:18Z</time>
      </trkpt>
      <trkpt lat="44.23404" lon="6.00562">
        <ele>1148.91</ele>
        <time>2013-06-09T09:37:20Z</time>
      </trkpt>
      <trkpt lat="44.23419" lon="6.0057">
        <ele>1147.47</ele>
        <time>2013-06-09T09:37:32Z</time>
      </trkpt>
      <trkpt lat="44.23434" lon="6.00581">
        <ele>1146.03</ele>
        <time>2013-06-09T09:37:47Z</time>
      </trkpt>
      <trkpt lat="44.23452" lon="6.00585">
        <ele>1143.14</ele>
        <time>2013-06-09T09:38:03Z</time>
      </trkpt>
      <trkpt lat="44.23468" lon="6.006">
        <ele>1141.7</ele>
        <time>2013-06-09T09:38:17Z</time>
      </trkpt>
      <trkpt lat="44.23482" lon="6.00615">
        <ele>1140.74</ele>
        <time>2013-06-09T09:38:31Z</time>
      </trkpt>
      <trkpt lat="44.23495" lon="6.00631">
        <ele>1140.26</ele>
        <time>2013-06-09T09:38:46Z</time>
      </trkpt>
      <trkpt lat="44.2351" lon="6.0065">
        <ele>1140.74</ele>
        <time>2013-06-09T09:39:02Z</time>
      </trkpt>
      <trkpt lat="44.23518" lon="6.00663">
        <ele>1140.26</ele>
        <time>2013-06-09T09:39:16Z</time>
      </trkpt>
      <trkpt lat="44.23518" lon="6.00664">
        <ele>1140.26</ele>
        <time>2013-06-09T09:39:18Z</time>
      </trkpt>
      <trkpt lat="44.23528" lon="6.00686">
        <ele>1139.78</ele>
        <time>2013-06-09T09:39:29Z</time>
      </trkpt>
      <trkpt lat="44.2354" lon="6.00705">
        <ele>1138.82</ele>
        <time>2013-06-09T09:39:43Z</time>
      </trkpt>
      <trkpt lat="44.23551" lon="6.00725">
        <ele>1136.42</ele>
        <time>2013-06-09T09:39:59Z</time>
      </trkpt>
      <trkpt lat="44.23562" lon="6.00734">
        <ele>1134.01</ele>
        <time>2013-06-09T09:40:12Z</time>
      </trkpt>
      <trkpt lat="44.23582" lon="6.00739">
        <ele>1131.61</ele>
        <time>2013-06-09T09:40:29Z</time>
      </trkpt>
      <trkpt lat="44.23587" lon="6.00742">
        <ele>1130.65</ele>
        <time>2013-06-09T09:40:33Z</time>
      </trkpt>
      <trkpt lat="44.236" lon="6.00745">
        <ele>1131.13</ele>
        <time>2013-06-09T09:40:43Z</time>
      </trkpt>
      <trkpt lat="44.23615" lon="6.0074">
        <ele>1129.21</ele>
        <time>2013-06-09T09:40:55Z</time>
      </trkpt>
      <trkpt lat="44.23626" lon="6.00728">
        <ele>1127.76</ele>
        <time>2013-06-09T09:41:06Z</time>
      </trkpt>
      <trkpt lat="44.2363" lon="6.00727">
        <ele>1124.4</ele>
        <time>2013-06-09T09:41:09Z</time>
      </trkpt>
      <trkpt lat="44.23632" lon="6.00729">
        <ele>1127.28</ele>
        <time>2013-06-09T09:41:11Z</time>
      </trkpt>
      <trkpt lat="44.23636" lon="6.0076">
        <ele>1125.84</ele>
        <time>2013-06-09T09:41:25Z</time>
      </trkpt>
      <trkpt lat="44.23636" lon="6.00763">
        <ele>1127.28</ele>
        <time>2013-06-09T09:41:27Z</time>
      </trkpt>
      <trkpt lat="44.23643" lon="6.00784">
        <ele>1125.84</ele>
        <time>2013-06-09T09:41:40Z</time>
      </trkpt>
      <trkpt lat="44.23646" lon="6.00788">
        <ele>1127.28</ele>
        <time>2013-06-09T09:41:44Z</time>
      </trkpt>
      <trkpt lat="44.23655" lon="6.00797">
        <ele>1126.32</ele>
        <time>2013-06-09T09:41:56Z</time>
      </trkpt>
      <trkpt lat="44.23658" lon="6.00799">
        <ele>1128.73</ele>
        <time>2013-06-09T09:41:59Z</time>
      </trkpt>
      <trkpt lat="44.23671" lon="6.00804">
        <ele>1128.24</ele>
        <time>2013-06-09T09:42:10Z</time>
      </trkpt>
      <trkpt lat="44.23686" lon="6.00806">
        <ele>1130.17</ele>
        <time>2013-06-09T09:42:22Z</time>
      </trkpt>
      <trkpt lat="44.23691" lon="6.00812">
        <ele>1129.21</ele>
        <time>2013-06-09T09:42:27Z</time>
      </trkpt>
      <trkpt lat="44.23692" lon="6.00814">
        <ele>1128.24</ele>
        <time>2013-06-09T09:42:28Z</time>
      </trkpt>
      <trkpt lat="44.23699" lon="6.00838">
        <ele>1129.21</ele>
        <time>2013-06-09T09:42:41Z</time>
      </trkpt>
      <trkpt lat="44.23701" lon="6.00846">
        <ele>1128.24</ele>
        <time>2013-06-09T09:42:45Z</time>
      </trkpt>
      <trkpt lat="44.23703" lon="6.00857">
        <ele>1128.73</ele>
        <time>2013-06-09T09:42:50Z</time>
      </trkpt>
      <trkpt lat="44.23709" lon="6.00881">
        <ele>1126.8</ele>
        <time>2013-06-09T09:43:03Z</time>
      </trkpt>
      <trkpt lat="44.23709" lon="6.00895">
        <ele>1127.76</ele>
        <time>2013-06-09T09:43:14Z</time>
      </trkpt>
      <trkpt lat="44.23708" lon="6.009">
        <ele>1127.76</ele>
        <time>2013-06-09T09:43:18Z</time>
      </trkpt>
      <trkpt lat="44.23707" lon="6.00913">
        <ele>1127.28</ele>
        <time>2013-06-09T09:43:31Z</time>
      </trkpt>
      <trkpt lat="44.23707" lon="6.00914">
        <ele>1127.28</ele>
        <time>2013-06-09T09:43:32Z</time>
      </trkpt>
      <trkpt lat="44.23703" lon="6.0093">
        <ele>1128.24</ele>
        <time>2013-06-09T09:43:46Z</time>
      </trkpt>
      <trkpt lat="44.23696" lon="6.00952">
        <ele>1127.76</ele>
        <time>2013-06-09T09:44:02Z</time>
      </trkpt>
      <trkpt lat="44.23693" lon="6.00972">
        <ele>1127.28</ele>
        <time>2013-06-09T09:44:16Z</time>
      </trkpt>
      <trkpt lat="44.23694" lon="6.00973">
        <ele>1126.32</ele>
        <time>2013-06-09T09:44:18Z</time>
      </trkpt>
      <trkpt lat="44.23696" lon="6.00975">
        <ele>1125.84</ele>
        <time>2013-06-09T09:44:22Z</time>
      </trkpt>
      <trkpt lat="44.23702" lon="6.00986">
        <ele>1123.92</ele>
        <time>2013-06-09T09:44:38Z</time>
      </trkpt>
      <trkpt lat="44.23709" lon="6.00991">
        <ele>1122.48</ele>
        <time>2013-06-09T09:44:46Z</time>
      </trkpt>
      <trkpt lat="44.23716" lon="6.01002">
        <ele>1120.07</ele>
        <time>2013-06-09T09:44:55Z</time>
      </trkpt>
      <trkpt lat="44.2372" lon="6.01025">
        <ele>1119.11</ele>
        <time>2013-06-09T09:45:10Z</time>
      </trkpt>
      <trkpt lat="44.23722" lon="6.01033">
        <ele>1117.67</ele>
        <time>2013-06-09T09:45:15Z</time>
      </trkpt>
      <trkpt lat="44.23722" lon="6.01038">
        <ele>1117.19</ele>
        <time>2013-06-09T09:45:19Z</time>
      </trkpt>
      <trkpt lat="44.23718" lon="6.01051">
        <ele>1117.19</ele>
        <time>2013-06-09T09:45:34Z</time>
      </trkpt>
      <trkpt lat="44.23717" lon="6.01052">
        <ele>1116.23</ele>
        <time>2013-06-09T09:45:35Z</time>
      </trkpt>
      <trkpt lat="44.23718" lon="6.01067">
        <ele>1115.27</ele>
        <time>2013-06-09T09:45:45Z</time>
      </trkpt>
      <trkpt lat="44.23722" lon="6.01072">
        <ele>1113.34</ele>
        <time>2013-06-09T09:45:49Z</time>
      </trkpt>
      <trkpt lat="44.23725" lon="6.01089">
        <ele>1112.38</ele>
        <time>2013-06-09T09:46:03Z</time>
      </trkpt>
      <trkpt lat="44.23724" lon="6.01093">
        <ele>1111.9</ele>
        <time>2013-06-09T09:46:19Z</time>
      </trkpt>
      <trkpt lat="44.23722" lon="6.01094">
        <ele>1111.9</ele>
        <time>2013-06-09T09:46:38Z</time>
      </trkpt>
      <trkpt lat="44.2372" lon="6.01107">
        <ele>1110.94</ele>
        <time>2013-06-09T09:46:53Z</time>
      </trkpt>
      <trkpt lat="44.23725" lon="6.0113">
        <ele>1107.58</ele>
        <time>2013-06-09T09:47:08Z</time>
      </trkpt>
      <trkpt lat="44.23729" lon="6.01149">
        <ele>1106.61</ele>
        <time>2013-06-09T09:47:21Z</time>
      </trkpt>
      <trkpt lat="44.23733" lon="6.01167">
        <ele>1105.17</ele>
        <time>2013-06-09T09:47:32Z</time>
      </trkpt>
      <trkpt lat="44.23736" lon="6.01192">
        <ele>1103.25</ele>
        <time>2013-06-09T09:47:47Z</time>
      </trkpt>
      <trkpt lat="44.23731" lon="6.01216">
        <ele>1102.29</ele>
        <time>2013-06-09T09:48:02Z</time>
      </trkpt>
      <trkpt lat="44.2373" lon="6.01219">
        <ele>1101.81</ele>
        <time>2013-06-09T09:48:04Z</time>
      </trkpt>
      <trkpt lat="44.23727" lon="6.0124">
        <ele>1102.77</ele>
        <time>2013-06-09T09:48:18Z</time>
      </trkpt>
      <trkpt lat="44.23726" lon="6.01243">
        <ele>1102.29</ele>
        <time>2013-06-09T09:48:20Z</time>
      </trkpt>
      <trkpt lat="44.23721" lon="6.01271">
        <ele>1100.85</ele>
        <time>2013-06-09T09:48:39Z</time>
      </trkpt>
      <trkpt lat="44.23723" lon="6.0128">
        <ele>1099.89</ele>
        <time>2013-06-09T09:48:44Z</time>
      </trkpt>
      <trkpt lat="44.23727" lon="6.01294">
        <ele>1098.92</ele>
        <time>2013-06-09T09:48:52Z</time>
      </trkpt>
      <trkpt lat="44.23731" lon="6.0132">
        <ele>1096.04</ele>
        <time>2013-06-09T09:49:09Z</time>
      </trkpt>
      <trkpt lat="44.23728" lon="6.01335">
        <ele>1093.16</ele>
        <time>2013-06-09T09:49:21Z</time>
      </trkpt>
      <trkpt lat="44.23729" lon="6.01349">
        <ele>1092.2</ele>
        <time>2013-06-09T09:49:30Z</time>
      </trkpt>
      <trkpt lat="44.23729" lon="6.01364">
        <ele>1089.79</ele>
        <time>2013-06-09T09:49:42Z</time>
      </trkpt>
      <trkpt lat="44.23737" lon="6.01385">
        <ele>1087.87</ele>
        <time>2013-06-09T09:49:56Z</time>
      </trkpt>
      <trkpt lat="44.23746" lon="6.01397">
        <ele>1086.91</ele>
        <time>2013-06-09T09:50:10Z</time>
      </trkpt>
      <trkpt lat="44.23753" lon="6.01402">
        <ele>1085.47</ele>
        <time>2013-06-09T09:50:19Z</time>
      </trkpt>
      <trkpt lat="44.23766" lon="6.01397">
        <ele>1084.99</ele>
        <time>2013-06-09T09:50:34Z</time>
      </trkpt>
      <trkpt lat="44.23784" lon="6.0139">
        <ele>1083.06</ele>
        <time>2013-06-09T09:50:51Z</time>
      </trkpt>
      <trkpt lat="44.238" lon="6.01387">
        <ele>1080.66</ele>
        <time>2013-06-09T09:51:06Z</time>
      </trkpt>
      <trkpt lat="44.23816" lon="6.01393">
        <ele>1079.7</ele>
        <time>2013-06-09T09:51:20Z</time>
      </trkpt>
      <trkpt lat="44.23819" lon="6.01392">
        <ele>1079.22</ele>
        <time>2013-06-09T09:51:35Z</time>
      </trkpt>
      <trkpt lat="44.23826" lon="6.01394">
        <ele>1078.26</ele>
        <time>2013-06-09T09:51:48Z</time>
      </trkpt>
      <trkpt lat="44.23836" lon="6.01398">
        <ele>1077.29</ele>
        <time>2013-06-09T09:52:03Z</time>
      </trkpt>
      <trkpt lat="44.23842" lon="6.01403">
        <ele>1075.37</ele>
        <time>2013-06-09T09:52:09Z</time>
      </trkpt>
      <trkpt lat="44.23855" lon="6.01415">
        <ele>1074.41</ele>
        <time>2013-06-09T09:52:22Z</time>
      </trkpt>
      <trkpt lat="44.23856" lon="6.01418">
        <ele>1073.45</ele>
        <time>2013-06-09T09:52:24Z</time>
      </trkpt>
      <trkpt lat="44.23859" lon="6.01431">
        <ele>1073.45</ele>
        <time>2013-06-09T09:52:32Z</time>
      </trkpt>
      <trkpt lat="44.23854" lon="6.01435">
        <ele>1074.41</ele>
        <time>2013-06-09T09:52:36Z</time>
      </trkpt>
      <trkpt lat="44.23845" lon="6.01437">
        <ele>1072.49</ele>
        <time>2013-06-09T09:52:45Z</time>
      </trkpt>
      <trkpt lat="44.23832" lon="6.01445">
        <ele>1073.93</ele>
        <time>2013-06-09T09:52:58Z</time>
      </trkpt>
      <trkpt lat="44.23831" lon="6.01444">
        <ele>1073.45</ele>
        <time>2013-06-09T09:52:59Z</time>
      </trkpt>
      <trkpt lat="44.23834" lon="6.01438">
        <ele>1072.49</ele>
        <time>2013-06-09T09:53:05Z</time>
      </trkpt>
      <trkpt lat="44.23844" lon="6.01429">
        <ele>1072.49</ele>
        <time>2013-06-09T09:53:16Z</time>
      </trkpt>
      <trkpt lat="44.23848" lon="6.01428">
        <ele>1072.97</ele>
        <time>2013-06-09T09:53:20Z</time>
      </trkpt>
      <trkpt lat="44.23856" lon="6.01429">
        <ele>1073.93</ele>
        <time>2013-06-09T09:53:32Z</time>
      </trkpt>
      <trkpt lat="44.23861" lon="6.01424">
        <ele>1074.41</ele>
        <time>2013-06-09T09:53:40Z</time>
      </trkpt>
      <trkpt lat="44.23869" lon="6.01425">
        <ele>1076.33</ele>
        <time>2013-06-09T09:53:52Z</time>
      </trkpt>
      <trkpt lat="44.23871" lon="6.01433">
        <ele>1076.81</ele>
        <time>2013-06-09T09:54:09Z</time>
      </trkpt>
      <trkpt lat="44.23872" lon="6.01434">
        <ele>1077.29</ele>
        <time>2013-06-09T09:54:21Z</time>
      </trkpt>
      <trkpt lat="44.23873" lon="6.01432">
        <ele>1077.29</ele>
        <time>2013-06-09T09:54:39Z</time>
      </trkpt>
      <trkpt lat="44.23873" lon="6.01432">
        <ele>1072.49</ele>
        <time>2013-06-09T09:54:40Z</time>
      </trkpt>
      <trkpt lat="44.23874" lon="6.01432">
        <ele>1079.7</ele>
        <time>2013-06-09T09:54:41Z</time>
      </trkpt>
      <trkpt lat="44.23874" lon="6.01432">
        <ele>1076.33</ele>
        <time>2013-06-09T09:54:42Z</time>
      </trkpt>
      <trkpt lat="44.23874" lon="6.01434">
        <ele>1076.81</ele>
        <time>2013-06-09T09:55:01Z</time>
      </trkpt>
      <trkpt lat="44.23872" lon="6.01433">
        <ele>1076.33</ele>
        <time>2013-06-09T09:55:28Z</time>
      </trkpt>
      <trkpt lat="44.23872" lon="6.01434">
        <ele>1076.33</ele>
        <time>2013-06-09T09:55:50Z</time>
      </trkpt>
      <trkpt lat="44.23873" lon="6.01432">
        <ele>1076.33</ele>
        <time>2013-06-09T09:56:16Z</time>
      </trkpt>
      <trkpt lat="44.23869" lon="6.01424">
        <ele>1076.33</ele>
        <time>2013-06-09T09:56:48Z</time>
      </trkpt>
      <trkpt lat="44.23868" lon="6.01429">
        <ele>1075.85</ele>
        <time>2013-06-09T09:57:12Z</time>
      </trkpt>
      <trkpt lat="44.23869" lon="6.01428">
        <ele>1076.33</ele>
        <time>2013-06-09T09:57:42Z</time>
      </trkpt>
      <trkpt lat="44.23872" lon="6.01428">
        <ele>1075.85</ele>
        <time>2013-06-09T09:58:16Z</time>
      </trkpt>
      <trkpt lat="44.23874" lon="6.01427">
        <ele>1075.85</ele>
        <time>2013-06-09T09:58:45Z</time>
      </trkpt>
      <trkpt lat="44.23873" lon="6.01427">
        <ele>1075.37</ele>
        <time>2013-06-09T09:59:11Z</time>
      </trkpt>
      <trkpt lat="44.23874" lon="6.01423">
        <ele>1074.89</ele>
        <time>2013-06-09T09:59:42Z</time>
      </trkpt>
      <trkpt lat="44.23879" lon="6.0143">
        <ele>1075.37</ele>
        <time>2013-06-09T10:00:04Z</time>
      </trkpt>
      <trkpt lat="44.23878" lon="6.01431">
        <ele>1075.37</ele>
        <time>2013-06-09T10:00:35Z</time>
      </trkpt>
      <trkpt lat="44.23879" lon="6.01433">
        <ele>1074.89</ele>
        <time>2013-06-09T10:01:12Z</time>
      </trkpt>
      <trkpt lat="44.2388" lon="6.0143">
        <ele>1074.89</ele>
        <time>2013-06-09T10:01:48Z</time>
      </trkpt>
      <trkpt lat="44.23879" lon="6.0143">
        <ele>1074.89</ele>
        <time>2013-06-09T10:02:27Z</time>
      </trkpt>
      <trkpt lat="44.2388" lon="6.0143">
        <ele>1074.41</ele>
        <time>2013-06-09T10:02:52Z</time>
      </trkpt>
      <trkpt lat="44.23878" lon="6.01421">
        <ele>1074.41</ele>
        <time>2013-06-09T10:03:17Z</time>
      </trkpt>
      <trkpt lat="44.23879" lon="6.01427">
        <ele>1074.41</ele>
        <time>2013-06-09T10:03:37Z</time>
      </trkpt>
      <trkpt lat="44.23878" lon="6.0142">
        <ele>1074.41</ele>
        <time>2013-06-09T10:04:02Z</time>
      </trkpt>
      <trkpt lat="44.23871" lon="6.01436">
        <ele>1073.93</ele>
        <time>2013-06-09T10:04:28Z</time>
      </trkpt>
      <trkpt lat="44.2387" lon="6.01441">
        <ele>1073.93</ele>
        <time>2013-06-09T10:04:59Z</time>
      </trkpt>
      <trkpt lat="44.23873" lon="6.01438">
        <ele>1073.93</ele>
        <time>2013-06-09T10:05:21Z</time>
      </trkpt>
      <trkpt lat="44.23876" lon="6.01437">
        <ele>1073.93</ele>
        <time>2013-06-09T10:05:51Z</time>
      </trkpt>
      <trkpt lat="44.23872" lon="6.0144">
        <ele>1073.45</ele>
        <time>2013-06-09T10:06:27Z</time>
      </trkpt>
      <trkpt lat="44.23873" lon="6.01433">
        <ele>1073.93</ele>
        <time>2013-06-09T10:07:00Z</time>
      </trkpt>
      <trkpt lat="44.23872" lon="6.01435">
        <ele>1073.45</ele>
        <time>2013-06-09T10:07:33Z</time>
      </trkpt>
      <trkpt lat="44.23872" lon="6.01436">
        <ele>1072.97</ele>
        <time>2013-06-09T10:08:06Z</time>
      </trkpt>
      <trkpt lat="44.23873" lon="6.01432">
        <ele>1072.97</ele>
        <time>2013-06-09T10:08:41Z</time>
      </trkpt>
      <trkpt lat="44.23871" lon="6.01441">
        <ele>1072.97</ele>
        <time>2013-06-09T10:09:18Z</time>
      </trkpt>
      <trkpt lat="44.23869" lon="6.01439">
        <ele>1072.49</ele>
        <time>2013-06-09T10:09:47Z</time>
      </trkpt>
      <trkpt lat="44.23872" lon="6.01438">
        <ele>1072.49</ele>
        <time>2013-06-09T10:10:21Z</time>
      </trkpt>
      <trkpt lat="44.23868" lon="6.01437">
        <ele>1072.49</ele>
        <time>2013-06-09T10:11:00Z</time>
      </trkpt>
      <trkpt lat="44.2387" lon="6.01437">
        <ele>1072.01</ele>
        <time>2013-06-09T10:11:29Z</time>
      </trkpt>
      <trkpt lat="44.23873" lon="6.01434">
        <ele>1072.01</ele>
        <time>2013-06-09T10:11:51Z</time>
      </trkpt>
      <trkpt lat="44.23872" lon="6.01432">
        <ele>1072.01</ele>
        <time>2013-06-09T10:12:12Z</time>
      </trkpt>
      <trkpt lat="44.23872" lon="6.01426">
        <ele>1072.01</ele>
        <time>2013-06-09T10:12:37Z</time>
      </trkpt>
      <trkpt lat="44.23873" lon="6.01429">
        <ele>1072.01</ele>
        <time>2013-06-09T10:13:05Z</time>
      </trkpt>
      <trkpt lat="44.23877" lon="6.01433">
        <ele>1071.53</ele>
        <time>2013-06-09T10:13:31Z</time>
      </trkpt>
      <trkpt lat="44.23875" lon="6.01429">
        <ele>1071.53</ele>
        <time>2013-06-09T10:14:00Z</time>
      </trkpt>
      <trkpt lat="44.23875" lon="6.01428">
        <ele>1072.01</ele>
        <time>2013-06-09T10:14:31Z</time>
      </trkpt>
      <trkpt lat="44.23875" lon="6.01431">
        <ele>1071.53</ele>
        <time>2013-06-09T10:15:01Z</time>
      </trkpt>
      <trkpt lat="44.23876" lon="6.01431">
        <ele>1071.53</ele>
        <time>2013-06-09T10:15:27Z</time>
      </trkpt>
      <trkpt lat="44.23875" lon="6.01431">
        <ele>1072.01</ele>
        <time>2013-06-09T10:15:56Z</time>
      </trkpt>
      <trkpt lat="44.23874" lon="6.01433">
        <ele>1072.01</ele>
        <time>2013-06-09T10:16:21Z</time>
      </trkpt>
      <trkpt lat="44.23872" lon="6.01431">
        <ele>1072.01</ele>
        <time>2013-06-09T10:16:45Z</time>
      </trkpt>
      <trkpt lat="44.2387" lon="6.01433">
        <ele>1072.49</ele>
        <time>2013-06-09T10:17:13Z</time>
      </trkpt>
      <trkpt lat="44.23874" lon="6.01433">
        <ele>1072.49</ele>
        <time>2013-06-09T10:17:37Z</time>
      </trkpt>
      <trkpt lat="44.23879" lon="6.01434">
        <ele>1072.49</ele>
        <time>2013-06-09T10:17:55Z</time>
      </trkpt>
      <trkpt lat="44.23877" lon="6.01435">
        <ele>1073.93</ele>
        <time>2013-06-09T10:18:00Z</time>
      </trkpt>
      <trkpt lat="44.23874" lon="6.01432">
        <ele>1073.45</ele>
        <time>2013-06-09T10:18:14Z</time>
      </trkpt>
      <trkpt lat="44.2387" lon="6.01434">
        <ele>1073.93</ele>
        <time>2013-06-09T10:18:39Z</time>
      </trkpt>
      <trkpt lat="44.23873" lon="6.0143">
        <ele>1074.41</ele>
        <time>2013-06-09T10:19:00Z</time>
      </trkpt>
      <trkpt lat="44.23873" lon="6.01432">
        <ele>1073.93</ele>
        <time>2013-06-09T10:19:16Z</time>
      </trkpt>
      <trkpt lat="44.23873" lon="6.01439">
        <ele>1071.05</ele>
        <time>2013-06-09T10:19:31Z</time>
      </trkpt>
      <trkpt lat="44.23872" lon="6.01443">
        <ele>1072.97</ele>
        <time>2013-06-09T10:19:34Z</time>
      </trkpt>
      <trkpt lat="44.23865" lon="6.01448">
        <ele>1075.85</ele>
        <time>2013-06-09T10:19:41Z</time>
      </trkpt>
      <trkpt lat="44.2386" lon="6.01453">
        <ele>1077.78</ele>
        <time>2013-06-09T10:19:55Z</time>
      </trkpt>
      <trkpt lat="44.23859" lon="6.0146">
        <ele>1080.66</ele>
        <time>2013-06-09T10:20:07Z</time>
      </trkpt>
      <trkpt lat="44.23857" lon="6.01469">
        <ele>1082.58</ele>
        <time>2013-06-09T10:20:21Z</time>
      </trkpt>
      <trkpt lat="44.2386" lon="6.01473">
        <ele>1084.02</ele>
        <time>2013-06-09T10:20:28Z</time>
      </trkpt>
      <trkpt lat="44.23861" lon="6.01478">
        <ele>1085.95</ele>
        <time>2013-06-09T10:20:37Z</time>
      </trkpt>
      <trkpt lat="44.23863" lon="6.01484">
        <ele>1087.87</ele>
        <time>2013-06-09T10:20:45Z</time>
      </trkpt>
      <trkpt lat="44.23864" lon="6.01504">
        <ele>1087.39</ele>
        <time>2013-06-09T10:21:00Z</time>
      </trkpt>
      <trkpt lat="44.23864" lon="6.01522">
        <ele>1086.91</ele>
        <time>2013-06-09T10:21:13Z</time>
      </trkpt>
      <trkpt lat="44.23864" lon="6.01521">
        <ele>1087.87</ele>
        <time>2013-06-09T10:21:29Z</time>
      </trkpt>
      <trkpt lat="44.23863" lon="6.01516">
        <ele>1087.87</ele>
        <time>2013-06-09T10:21:33Z</time>
      </trkpt>
      <trkpt lat="44.23862" lon="6.015">
        <ele>1087.39</ele>
        <time>2013-06-09T10:21:45Z</time>
      </trkpt>
      <trkpt lat="44.23862" lon="6.01493">
        <ele>1087.39</ele>
        <time>2013-06-09T10:21:49Z</time>
      </trkpt>
      <trkpt lat="44.23862" lon="6.01476">
        <ele>1086.91</ele>
        <time>2013-06-09T10:22:02Z</time>
      </trkpt>
      <trkpt lat="44.23861" lon="6.0147">
        <ele>1084.5</ele>
        <time>2013-06-09T10:22:11Z</time>
      </trkpt>
      <trkpt lat="44.23862" lon="6.01463">
        <ele>1081.62</ele>
        <time>2013-06-09T10:22:24Z</time>
      </trkpt>
      <trkpt lat="44.23863" lon="6.01455">
        <ele>1078.74</ele>
        <time>2013-06-09T10:22:36Z</time>
      </trkpt>
      <trkpt lat="44.23861" lon="6.01445">
        <ele>1075.37</ele>
        <time>2013-06-09T10:22:52Z</time>
      </trkpt>
      <trkpt lat="44.23866" lon="6.01439">
        <ele>1072.49</ele>
        <time>2013-06-09T10:23:08Z</time>
      </trkpt>
      <trkpt lat="44.23869" lon="6.01439">
        <ele>1072.01</ele>
        <time>2013-06-09T10:23:24Z</time>
      </trkpt>
      <trkpt lat="44.23869" lon="6.01434">
        <ele>1072.01</ele>
        <time>2013-06-09T10:23:39Z</time>
      </trkpt>
      <trkpt lat="44.23871" lon="6.0143">
        <ele>1073.45</ele>
        <time>2013-06-09T10:23:56Z</time>
      </trkpt>
      <trkpt lat="44.23873" lon="6.01429">
        <ele>1074.41</ele>
        <time>2013-06-09T10:24:02Z</time>
      </trkpt>
      <trkpt lat="44.23874" lon="6.0143">
        <ele>1073.93</ele>
        <time>2013-06-09T10:24:19Z</time>
      </trkpt>
      <trkpt lat="44.23872" lon="6.01433">
        <ele>1074.41</ele>
        <time>2013-06-09T10:24:40Z</time>
      </trkpt>
      <trkpt lat="44.23868" lon="6.01431">
        <ele>1072.97</ele>
        <time>2013-06-09T10:24:57Z</time>
      </trkpt>
      <trkpt lat="44.23868" lon="6.0143">
        <ele>1072.01</ele>
        <time>2013-06-09T10:25:23Z</time>
      </trkpt>
      <trkpt lat="44.23862" lon="6.01435">
        <ele>1071.05</ele>
        <time>2013-06-09T10:25:35Z</time>
      </trkpt>
      <trkpt lat="44.23858" lon="6.01434">
        <ele>1070.57</ele>
        <time>2013-06-09T10:25:49Z</time>
      </trkpt>
      <trkpt lat="44.23859" lon="6.01436">
        <ele>1070.57</ele>
        <time>2013-06-09T10:26:04Z</time>
      </trkpt>
      <trkpt lat="44.23858" lon="6.01436">
        <ele>1071.05</ele>
        <time>2013-06-09T10:26:29Z</time>
      </trkpt>
      <trkpt lat="44.2385" lon="6.01437">
        <ele>1071.53</ele>
        <time>2013-06-09T10:26:41Z</time>
      </trkpt>
      <trkpt lat="44.23842" lon="6.0144">
        <ele>1070.08</ele>
        <time>2013-06-09T10:26:51Z</time>
      </trkpt>
      <trkpt lat="44.23835" lon="6.01446">
        <ele>1070.08</ele>
        <time>2013-06-09T10:27:01Z</time>
      </trkpt>
      <trkpt lat="44.23832" lon="6.01449">
        <ele>1070.57</ele>
        <time>2013-06-09T10:27:04Z</time>
      </trkpt>
      <trkpt lat="44.23827" lon="6.01465">
        <ele>1069.6</ele>
        <time>2013-06-09T10:27:15Z</time>
      </trkpt>
      <trkpt lat="44.23825" lon="6.01473">
        <ele>1068.64</ele>
        <time>2013-06-09T10:27:21Z</time>
      </trkpt>
      <trkpt lat="44.23823" lon="6.01478">
        <ele>1067.68</ele>
        <time>2013-06-09T10:27:27Z</time>
      </trkpt>
      <trkpt lat="44.23819" lon="6.01491">
        <ele>1066.72</ele>
        <time>2013-06-09T10:27:38Z</time>
      </trkpt>
      <trkpt lat="44.23817" lon="6.01491">
        <ele>1067.68</ele>
        <time>2013-06-09T10:27:49Z</time>
      </trkpt>
      <trkpt lat="44.23816" lon="6.01493">
        <ele>1066.24</ele>
        <time>2013-06-09T10:27:51Z</time>
      </trkpt>
      <trkpt lat="44.23811" lon="6.01504">
        <ele>1065.28</ele>
        <time>2013-06-09T10:27:58Z</time>
      </trkpt>
      <trkpt lat="44.23805" lon="6.01511">
        <ele>1064.32</ele>
        <time>2013-06-09T10:28:05Z</time>
      </trkpt>
      <trkpt lat="44.23796" lon="6.01522">
        <ele>1061.43</ele>
        <time>2013-06-09T10:28:17Z</time>
      </trkpt>
      <trkpt lat="44.23795" lon="6.01523">
        <ele>1061.91</ele>
        <time>2013-06-09T10:28:19Z</time>
      </trkpt>
      <trkpt lat="44.23778" lon="6.01537">
        <ele>1059.03</ele>
        <time>2013-06-09T10:28:33Z</time>
      </trkpt>
      <trkpt lat="44.23769" lon="6.01541">
        <ele>1058.07</ele>
        <time>2013-06-09T10:28:44Z</time>
      </trkpt>
      <trkpt lat="44.23765" lon="6.01545">
        <ele>1057.59</ele>
        <time>2013-06-09T10:28:58Z</time>
      </trkpt>
      <trkpt lat="44.23755" lon="6.0155">
        <ele>1055.18</ele>
        <time>2013-06-09T10:29:08Z</time>
      </trkpt>
      <trkpt lat="44.23751" lon="6.01553">
        <ele>1054.22</ele>
        <time>2013-06-09T10:29:13Z</time>
      </trkpt>
      <trkpt lat="44.23735" lon="6.01559">
        <ele>1052.78</ele>
        <time>2013-06-09T10:29:25Z</time>
      </trkpt>
      <trkpt lat="44.23722" lon="6.01568">
        <ele>1049.9</ele>
        <time>2013-06-09T10:29:39Z</time>
      </trkpt>
      <trkpt lat="44.2372" lon="6.01567">
        <ele>1049.42</ele>
        <time>2013-06-09T10:29:52Z</time>
      </trkpt>
      <trkpt lat="44.2372" lon="6.01567">
        <ele>1048.94</ele>
        <time>2013-06-09T10:30:03Z</time>
      </trkpt>
      <trkpt lat="44.23719" lon="6.01567">
        <ele>1052.3</ele>
        <time>2013-06-09T10:30:10Z</time>
      </trkpt>
      <trkpt lat="44.23718" lon="6.01569">
        <ele>1048.45</ele>
        <time>2013-06-09T10:30:13Z</time>
      </trkpt>
      <trkpt lat="44.23708" lon="6.01573">
        <ele>1047.01</ele>
        <time>2013-06-09T10:30:23Z</time>
      </trkpt>
      <trkpt lat="44.23706" lon="6.01575">
        <ele>1045.57</ele>
        <time>2013-06-09T10:30:26Z</time>
      </trkpt>
      <trkpt lat="44.23697" lon="6.01578">
        <ele>1042.21</ele>
        <time>2013-06-09T10:30:38Z</time>
      </trkpt>
      <trkpt lat="44.23687" lon="6.01585">
        <ele>1040.76</ele>
        <time>2013-06-09T10:30:49Z</time>
      </trkpt>
      <trkpt lat="44.23682" lon="6.01593">
        <ele>1036.44</ele>
        <time>2013-06-09T10:30:59Z</time>
      </trkpt>
      <trkpt lat="44.23679" lon="6.01594">
        <ele>1036.92</ele>
        <time>2013-06-09T10:31:03Z</time>
      </trkpt>
      <trkpt lat="44.23677" lon="6.01595">
        <ele>1035.48</ele>
        <time>2013-06-09T10:31:09Z</time>
      </trkpt>
      <trkpt lat="44.23668" lon="6.01604">
        <ele>1032.59</ele>
        <time>2013-06-09T10:31:22Z</time>
      </trkpt>
      <trkpt lat="44.23658" lon="6.01609">
        <ele>1029.23</ele>
        <time>2013-06-09T10:31:34Z</time>
      </trkpt>
      <trkpt lat="44.23653" lon="6.01605">
        <ele>1027.79</ele>
        <time>2013-06-09T10:31:44Z</time>
      </trkpt>
      <trkpt lat="44.23652" lon="6.01603">
        <ele>1027.31</ele>
        <time>2013-06-09T10:31:55Z</time>
      </trkpt>
      <trkpt lat="44.23651" lon="6.01597">
        <ele>1027.79</ele>
        <time>2013-06-09T10:32:05Z</time>
      </trkpt>
      <trkpt lat="44.23655" lon="6.01583">
        <ele>1025.86</ele>
        <time>2013-06-09T10:32:18Z</time>
      </trkpt>
      <trkpt lat="44.23658" lon="6.01574">
        <ele>1027.31</ele>
        <time>2013-06-09T10:32:26Z</time>
      </trkpt>
      <trkpt lat="44.23664" lon="6.0155">
        <ele>1026.34</ele>
        <time>2013-06-09T10:32:44Z</time>
      </trkpt>
      <trkpt lat="44.23672" lon="6.01533">
        <ele>1026.34</ele>
        <time>2013-06-09T10:32:57Z</time>
      </trkpt>
      <trkpt lat="44.2367" lon="6.01505">
        <ele>1026.34</ele>
        <time>2013-06-09T10:33:13Z</time>
      </trkpt>
      <trkpt lat="44.23672" lon="6.01485">
        <ele>1025.86</ele>
        <time>2013-06-09T10:33:27Z</time>
      </trkpt>
      <trkpt lat="44.23666" lon="6.01468">
        <ele>1026.34</ele>
        <time>2013-06-09T10:33:44Z</time>
      </trkpt>
      <trkpt lat="44.23656" lon="6.0145">
        <ele>1026.34</ele>
        <time>2013-06-09T10:34:01Z</time>
      </trkpt>
      <trkpt lat="44.23645" lon="6.01424">
        <ele>1025.38</ele>
        <time>2013-06-09T10:34:20Z</time>
      </trkpt>
      <trkpt lat="44.23644" lon="6.0142">
        <ele>1025.86</ele>
        <time>2013-06-09T10:34:22Z</time>
      </trkpt>
      <trkpt lat="44.23636" lon="6.01397">
        <ele>1025.38</ele>
        <time>2013-06-09T10:34:36Z</time>
      </trkpt>
      <trkpt lat="44.23632" lon="6.01387">
        <ele>1025.86</ele>
        <time>2013-06-09T10:34:44Z</time>
      </trkpt>
      <trkpt lat="44.23621" lon="6.0136">
        <ele>1026.34</ele>
        <time>2013-06-09T10:35:01Z</time>
      </trkpt>
      <trkpt lat="44.23622" lon="6.0136">
        <ele>1025.38</ele>
        <time>2013-06-09T10:35:15Z</time>
      </trkpt>
      <trkpt lat="44.23617" lon="6.01355">
        <ele>1024.9</ele>
        <time>2013-06-09T10:35:30Z</time>
      </trkpt>
      <trkpt lat="44.23615" lon="6.01353">
        <ele>1024.9</ele>
        <time>2013-06-09T10:35:46Z</time>
      </trkpt>
      <trkpt lat="44.2362" lon="6.01347">
        <ele>1024.9</ele>
        <time>2013-06-09T10:35:59Z</time>
      </trkpt>
      <trkpt lat="44.23615" lon="6.0134">
        <ele>1024.9</ele>
        <time>2013-06-09T10:36:16Z</time>
      </trkpt>
      <trkpt lat="44.23606" lon="6.01324">
        <ele>1024.42</ele>
        <time>2013-06-09T10:36:32Z</time>
      </trkpt>
      <trkpt lat="44.23603" lon="6.01324">
        <ele>1024.9</ele>
        <time>2013-06-09T10:36:50Z</time>
      </trkpt>
      <trkpt lat="44.23606" lon="6.01322">
        <ele>1024.9</ele>
        <time>2013-06-09T10:37:09Z</time>
      </trkpt>
      <trkpt lat="44.23603" lon="6.01308">
        <ele>1024.42</ele>
        <time>2013-06-09T10:37:26Z</time>
      </trkpt>
      <trkpt lat="44.2359" lon="6.01292">
        <ele>1023.94</ele>
        <time>2013-06-09T10:37:43Z</time>
      </trkpt>
      <trkpt lat="44.23577" lon="6.01282">
        <ele>1022.5</ele>
        <time>2013-06-09T10:38:01Z</time>
      </trkpt>
      <trkpt lat="44.23568" lon="6.01271">
        <ele>1021.54</ele>
        <time>2013-06-09T10:38:13Z</time>
      </trkpt>
      <trkpt lat="44.23565" lon="6.01268">
        <ele>1021.54</ele>
        <time>2013-06-09T10:38:17Z</time>
      </trkpt>
      <trkpt lat="44.2355" lon="6.01243">
        <ele>1022.98</ele>
        <time>2013-06-09T10:38:36Z</time>
      </trkpt>
      <trkpt lat="44.23533" lon="6.01216">
        <ele>1021.06</ele>
        <time>2013-06-09T10:38:56Z</time>
      </trkpt>
      <trkpt lat="44.2353" lon="6.01211">
        <ele>1021.06</ele>
        <time>2013-06-09T10:38:59Z</time>
      </trkpt>
      <trkpt lat="44.23521" lon="6.01182">
        <ele>1021.06</ele>
        <time>2013-06-09T10:39:12Z</time>
      </trkpt>
      <trkpt lat="44.2352" lon="6.01176">
        <ele>1021.54</ele>
        <time>2013-06-09T10:39:16Z</time>
      </trkpt>
      <trkpt lat="44.23516" lon="6.01163">
        <ele>1020.58</ele>
        <time>2013-06-09T10:39:27Z</time>
      </trkpt>
      <trkpt lat="44.23515" lon="6.01159">
        <ele>1020.58</ele>
        <time>2013-06-09T10:39:30Z</time>
      </trkpt>
      <trkpt lat="44.23512" lon="6.01142">
        <ele>1020.1</ele>
        <time>2013-06-09T10:39:41Z</time>
      </trkpt>
      <trkpt lat="44.23508" lon="6.01125">
        <ele>1020.1</ele>
        <time>2013-06-09T10:39:52Z</time>
      </trkpt>
      <trkpt lat="44.23506" lon="6.01105">
        <ele>1019.62</ele>
        <time>2013-06-09T10:40:06Z</time>
      </trkpt>
      <trkpt lat="44.23503" lon="6.0108">
        <ele>1019.62</ele>
        <time>2013-06-09T10:40:22Z</time>
      </trkpt>
      <trkpt lat="44.23502" lon="6.01071">
        <ele>1019.13</ele>
        <time>2013-06-09T10:40:28Z</time>
      </trkpt>
      <trkpt lat="44.23502" lon="6.01057">
        <ele>1019.13</ele>
        <time>2013-06-09T10:40:38Z</time>
      </trkpt>
      <trkpt lat="44.23499" lon="6.01041">
        <ele>1019.13</ele>
        <time>2013-06-09T10:40:52Z</time>
      </trkpt>
    </trkseg>
  </trk>
</gpx>